<?xml version="1.0" encoding="UTF-8" standalone="no" ?>
<gpx xmlns="http://www.topografix.com/GPX/1/1" xmlns:xsi="http://www.w3.org/2001/XMLSchema-instance" xsi:schemaLocation="http://www.topografix.com/GPX/1/1 http://www.topografix.com/GPX/1/1/gpx.xsd" version="1.1" creator="VisuGPX - https://www.visugpx.com">
  <metadata>
    <name>balade a pornic </name>
    <desc><![CDATA[vent important de face a l\\\'aller et a moitier perdu au retour malgré tout une moyenne de 29.1 plutot content de moi ]]></desc>
  </metadata>
  <trk>
    <name><![CDATA[Sequence 1]]></name>
    <trkseg>
      <trkpt lat="47.18835" lon="-1.6879">
        <ele>20</ele>
        <time>2014-04-08T12:39:28Z</time>
      </trkpt>
      <trkpt lat="47.18826" lon="-1.68804">
        <ele>20</ele>
        <time>2014-04-08T12:39:32Z</time>
      </trkpt>
      <trkpt lat="47.18825" lon="-1.68811">
        <ele>19</ele>
        <time>2014-04-08T12:39:33Z</time>
      </trkpt>
      <trkpt lat="47.18828" lon="-1.68836">
        <ele>20</ele>
        <time>2014-04-08T12:39:37Z</time>
      </trkpt>
      <trkpt lat="47.18842" lon="-1.68868">
        <ele>21</ele>
        <time>2014-04-08T12:39:41Z</time>
      </trkpt>
      <trkpt lat="47.18859" lon="-1.6893">
        <ele>23</ele>
        <time>2014-04-08T12:39:48Z</time>
      </trkpt>
      <trkpt lat="47.18864" lon="-1.68948">
        <ele>22</ele>
        <time>2014-04-08T12:39:50Z</time>
      </trkpt>
      <trkpt lat="47.18881" lon="-1.69004">
        <ele>19</ele>
        <time>2014-04-08T12:39:56Z</time>
      </trkpt>
      <trkpt lat="47.18894" lon="-1.69036">
        <ele>18</ele>
        <time>2014-04-08T12:40:00Z</time>
      </trkpt>
      <trkpt lat="47.18899" lon="-1.69049">
        <ele>19</ele>
        <time>2014-04-08T12:40:01Z</time>
      </trkpt>
      <trkpt lat="47.18925" lon="-1.69099">
        <ele>15</ele>
        <time>2014-04-08T12:40:08Z</time>
      </trkpt>
      <trkpt lat="47.18937" lon="-1.69116">
        <ele>14</ele>
        <time>2014-04-08T12:40:10Z</time>
      </trkpt>
      <trkpt lat="47.18952" lon="-1.69143">
        <ele>15</ele>
        <time>2014-04-08T12:40:15Z</time>
      </trkpt>
      <trkpt lat="47.18964" lon="-1.69165">
        <ele>14</ele>
        <time>2014-04-08T12:40:18Z</time>
      </trkpt>
      <trkpt lat="47.18987" lon="-1.69209">
        <ele>14</ele>
        <time>2014-04-08T12:40:24Z</time>
      </trkpt>
      <trkpt lat="47.18995" lon="-1.69241">
        <ele>15</ele>
        <time>2014-04-08T12:40:28Z</time>
      </trkpt>
      <trkpt lat="47.18998" lon="-1.69249">
        <ele>14</ele>
        <time>2014-04-08T12:40:29Z</time>
      </trkpt>
      <trkpt lat="47.19019" lon="-1.69301">
        <ele>16</ele>
        <time>2014-04-08T12:40:35Z</time>
      </trkpt>
      <trkpt lat="47.19041" lon="-1.6934">
        <ele>17</ele>
        <time>2014-04-08T12:40:40Z</time>
      </trkpt>
      <trkpt lat="47.19066" lon="-1.69381">
        <ele>17</ele>
        <time>2014-04-08T12:40:44Z</time>
      </trkpt>
      <trkpt lat="47.19081" lon="-1.69405">
        <ele>17</ele>
        <time>2014-04-08T12:40:47Z</time>
      </trkpt>
      <trkpt lat="47.19108" lon="-1.69446">
        <ele>12</ele>
        <time>2014-04-08T12:40:51Z</time>
      </trkpt>
      <trkpt lat="47.19131" lon="-1.69486">
        <ele>8</ele>
        <time>2014-04-08T12:40:55Z</time>
      </trkpt>
      <trkpt lat="47.19152" lon="-1.69516">
        <ele>7</ele>
        <time>2014-04-08T12:40:58Z</time>
      </trkpt>
      <trkpt lat="47.19184" lon="-1.69562">
        <ele>6</ele>
        <time>2014-04-08T12:41:03Z</time>
      </trkpt>
      <trkpt lat="47.19213" lon="-1.69591">
        <ele>5</ele>
        <time>2014-04-08T12:41:08Z</time>
      </trkpt>
      <trkpt lat="47.19218" lon="-1.69609">
        <ele>3</ele>
        <time>2014-04-08T12:41:10Z</time>
      </trkpt>
      <trkpt lat="47.19213" lon="-1.69665">
        <ele>2</ele>
        <time>2014-04-08T12:41:15Z</time>
      </trkpt>
      <trkpt lat="47.19209" lon="-1.69711">
        <ele>-1</ele>
        <time>2014-04-08T12:41:19Z</time>
      </trkpt>
      <trkpt lat="47.19203" lon="-1.69765">
        <ele>-2</ele>
        <time>2014-04-08T12:41:24Z</time>
      </trkpt>
      <trkpt lat="47.192" lon="-1.69797">
        <ele>-3</ele>
        <time>2014-04-08T12:41:27Z</time>
      </trkpt>
      <trkpt lat="47.19197" lon="-1.69838">
        <ele>9.4</ele>
        <time>2014-04-08T12:41:31Z</time>
      </trkpt>
      <trkpt lat="47.19189" lon="-1.69888">
        <ele>2</ele>
        <time>2014-04-08T12:41:36Z</time>
      </trkpt>
      <trkpt lat="47.19184" lon="-1.69918">
        <ele>2</ele>
        <time>2014-04-08T12:41:39Z</time>
      </trkpt>
      <trkpt lat="47.19175" lon="-1.69959">
        <ele>3</ele>
        <time>2014-04-08T12:41:43Z</time>
      </trkpt>
      <trkpt lat="47.19157" lon="-1.69995">
        <ele>6</ele>
        <time>2014-04-08T12:41:47Z</time>
      </trkpt>
      <trkpt lat="47.19143" lon="-1.70018">
        <ele>6</ele>
        <time>2014-04-08T12:41:50Z</time>
      </trkpt>
      <trkpt lat="47.19121" lon="-1.70057">
        <ele>5</ele>
        <time>2014-04-08T12:41:55Z</time>
      </trkpt>
      <trkpt lat="47.19106" lon="-1.70089">
        <ele>8</ele>
        <time>2014-04-08T12:41:59Z</time>
      </trkpt>
      <trkpt lat="47.19087" lon="-1.70117">
        <ele>13</ele>
        <time>2014-04-08T12:42:03Z</time>
      </trkpt>
      <trkpt lat="47.19068" lon="-1.7016">
        <ele>14</ele>
        <time>2014-04-08T12:42:08Z</time>
      </trkpt>
      <trkpt lat="47.19067" lon="-1.70182">
        <ele>13</ele>
        <time>2014-04-08T12:42:10Z</time>
      </trkpt>
      <trkpt lat="47.19069" lon="-1.7023">
        <ele>13</ele>
        <time>2014-04-08T12:42:15Z</time>
      </trkpt>
      <trkpt lat="47.19072" lon="-1.70269">
        <ele>12</ele>
        <time>2014-04-08T12:42:19Z</time>
      </trkpt>
      <trkpt lat="47.19074" lon="-1.70287">
        <ele>14</ele>
        <time>2014-04-08T12:42:21Z</time>
      </trkpt>
      <trkpt lat="47.19075" lon="-1.70332">
        <ele>16</ele>
        <time>2014-04-08T12:42:27Z</time>
      </trkpt>
      <trkpt lat="47.19075" lon="-1.70363">
        <ele>17</ele>
        <time>2014-04-08T12:42:31Z</time>
      </trkpt>
      <trkpt lat="47.19076" lon="-1.70391">
        <ele>16</ele>
        <time>2014-04-08T12:42:35Z</time>
      </trkpt>
      <trkpt lat="47.19082" lon="-1.70417">
        <ele>18</ele>
        <time>2014-04-08T12:42:39Z</time>
      </trkpt>
      <trkpt lat="47.19089" lon="-1.7044">
        <ele>18</ele>
        <time>2014-04-08T12:42:43Z</time>
      </trkpt>
      <trkpt lat="47.19094" lon="-1.70465">
        <ele>17</ele>
        <time>2014-04-08T12:42:47Z</time>
      </trkpt>
      <trkpt lat="47.19101" lon="-1.70485">
        <ele>16</ele>
        <time>2014-04-08T12:42:50Z</time>
      </trkpt>
      <trkpt lat="47.19105" lon="-1.70521">
        <ele>17</ele>
        <time>2014-04-08T12:42:56Z</time>
      </trkpt>
      <trkpt lat="47.19108" lon="-1.70552">
        <ele>18</ele>
        <time>2014-04-08T12:43:00Z</time>
      </trkpt>
      <trkpt lat="47.19109" lon="-1.70573">
        <ele>17</ele>
        <time>2014-04-08T12:43:03Z</time>
      </trkpt>
      <trkpt lat="47.19111" lon="-1.70602">
        <ele>18</ele>
        <time>2014-04-08T12:43:07Z</time>
      </trkpt>
      <trkpt lat="47.19115" lon="-1.70632">
        <ele>21</ele>
        <time>2014-04-08T12:43:11Z</time>
      </trkpt>
      <trkpt lat="47.1912" lon="-1.7066">
        <ele>22</ele>
        <time>2014-04-08T12:43:15Z</time>
      </trkpt>
      <trkpt lat="47.19128" lon="-1.70698">
        <ele>22</ele>
        <time>2014-04-08T12:43:20Z</time>
      </trkpt>
      <trkpt lat="47.19133" lon="-1.70731">
        <ele>23</ele>
        <time>2014-04-08T12:43:24Z</time>
      </trkpt>
      <trkpt lat="47.1914" lon="-1.70756">
        <ele>23</ele>
        <time>2014-04-08T12:43:27Z</time>
      </trkpt>
      <trkpt lat="47.19137" lon="-1.70796">
        <ele>20</ele>
        <time>2014-04-08T12:43:32Z</time>
      </trkpt>
      <trkpt lat="47.19138" lon="-1.70828">
        <ele>19</ele>
        <time>2014-04-08T12:43:36Z</time>
      </trkpt>
      <trkpt lat="47.19138" lon="-1.70869">
        <ele>21</ele>
        <time>2014-04-08T12:43:41Z</time>
      </trkpt>
      <trkpt lat="47.19139" lon="-1.70905">
        <ele>21</ele>
        <time>2014-04-08T12:43:45Z</time>
      </trkpt>
      <trkpt lat="47.19136" lon="-1.70931">
        <ele>24</ele>
        <time>2014-04-08T12:43:48Z</time>
      </trkpt>
      <trkpt lat="47.19134" lon="-1.70957">
        <ele>23</ele>
        <time>2014-04-08T12:43:51Z</time>
      </trkpt>
      <trkpt lat="47.19131" lon="-1.71013">
        <ele>22</ele>
        <time>2014-04-08T12:43:57Z</time>
      </trkpt>
      <trkpt lat="47.19133" lon="-1.71048">
        <ele>24</ele>
        <time>2014-04-08T12:44:01Z</time>
      </trkpt>
      <trkpt lat="47.19135" lon="-1.71072">
        <ele>26</ele>
        <time>2014-04-08T12:44:04Z</time>
      </trkpt>
      <trkpt lat="47.19138" lon="-1.711">
        <ele>25</ele>
        <time>2014-04-08T12:44:08Z</time>
      </trkpt>
      <trkpt lat="47.1914" lon="-1.71121">
        <ele>27</ele>
        <time>2014-04-08T12:44:14Z</time>
      </trkpt>
      <trkpt lat="47.19141" lon="-1.71136">
        <ele>23</ele>
        <time>2014-04-08T12:44:31Z</time>
      </trkpt>
      <trkpt lat="47.19137" lon="-1.71158">
        <ele>23</ele>
        <time>2014-04-08T12:44:36Z</time>
      </trkpt>
      <trkpt lat="47.19145" lon="-1.71196">
        <ele>22</ele>
        <time>2014-04-08T12:44:40Z</time>
      </trkpt>
      <trkpt lat="47.19152" lon="-1.71241">
        <ele>21</ele>
        <time>2014-04-08T12:44:44Z</time>
      </trkpt>
      <trkpt lat="47.19155" lon="-1.71275">
        <ele>22</ele>
        <time>2014-04-08T12:44:47Z</time>
      </trkpt>
      <trkpt lat="47.19167" lon="-1.71335">
        <ele>23</ele>
        <time>2014-04-08T12:44:52Z</time>
      </trkpt>
      <trkpt lat="47.19175" lon="-1.71377">
        <ele>22</ele>
        <time>2014-04-08T12:44:56Z</time>
      </trkpt>
      <trkpt lat="47.19188" lon="-1.71419">
        <ele>24</ele>
        <time>2014-04-08T12:45:00Z</time>
      </trkpt>
      <trkpt lat="47.19201" lon="-1.71469">
        <ele>24</ele>
        <time>2014-04-08T12:45:05Z</time>
      </trkpt>
      <trkpt lat="47.19209" lon="-1.715">
        <ele>24</ele>
        <time>2014-04-08T12:45:08Z</time>
      </trkpt>
      <trkpt lat="47.19221" lon="-1.71538">
        <ele>23</ele>
        <time>2014-04-08T12:45:12Z</time>
      </trkpt>
      <trkpt lat="47.19226" lon="-1.71551">
        <ele>21</ele>
        <time>2014-04-08T12:45:14Z</time>
      </trkpt>
      <trkpt lat="47.19239" lon="-1.71585">
        <ele>19</ele>
        <time>2014-04-08T12:45:19Z</time>
      </trkpt>
      <trkpt lat="47.19252" lon="-1.71633">
        <ele>17</ele>
        <time>2014-04-08T12:45:24Z</time>
      </trkpt>
      <trkpt lat="47.19266" lon="-1.71674">
        <ele>15</ele>
        <time>2014-04-08T12:45:28Z</time>
      </trkpt>
      <trkpt lat="47.1928" lon="-1.71714">
        <ele>15</ele>
        <time>2014-04-08T12:45:32Z</time>
      </trkpt>
      <trkpt lat="47.19294" lon="-1.71756">
        <ele>15</ele>
        <time>2014-04-08T12:45:36Z</time>
      </trkpt>
      <trkpt lat="47.19304" lon="-1.7179">
        <ele>13</ele>
        <time>2014-04-08T12:45:39Z</time>
      </trkpt>
      <trkpt lat="47.19321" lon="-1.71843">
        <ele>13</ele>
        <time>2014-04-08T12:45:44Z</time>
      </trkpt>
      <trkpt lat="47.19335" lon="-1.71888">
        <ele>12</ele>
        <time>2014-04-08T12:45:48Z</time>
      </trkpt>
      <trkpt lat="47.19346" lon="-1.71919">
        <ele>12</ele>
        <time>2014-04-08T12:45:51Z</time>
      </trkpt>
      <trkpt lat="47.19368" lon="-1.71976">
        <ele>10</ele>
        <time>2014-04-08T12:45:56Z</time>
      </trkpt>
      <trkpt lat="47.19386" lon="-1.72025">
        <ele>9</ele>
        <time>2014-04-08T12:46:00Z</time>
      </trkpt>
      <trkpt lat="47.19411" lon="-1.72082">
        <ele>6</ele>
        <time>2014-04-08T12:46:05Z</time>
      </trkpt>
      <trkpt lat="47.1943" lon="-1.72122">
        <ele>8</ele>
        <time>2014-04-08T12:46:09Z</time>
      </trkpt>
      <trkpt lat="47.19442" lon="-1.72161">
        <ele>11</ele>
        <time>2014-04-08T12:46:13Z</time>
      </trkpt>
      <trkpt lat="47.19455" lon="-1.722">
        <ele>11</ele>
        <time>2014-04-08T12:46:17Z</time>
      </trkpt>
      <trkpt lat="47.19469" lon="-1.7224">
        <ele>12</ele>
        <time>2014-04-08T12:46:21Z</time>
      </trkpt>
      <trkpt lat="47.19483" lon="-1.72274">
        <ele>12</ele>
        <time>2014-04-08T12:46:25Z</time>
      </trkpt>
      <trkpt lat="47.19505" lon="-1.72313">
        <ele>13</ele>
        <time>2014-04-08T12:46:30Z</time>
      </trkpt>
      <trkpt lat="47.19521" lon="-1.72344">
        <ele>12</ele>
        <time>2014-04-08T12:46:34Z</time>
      </trkpt>
      <trkpt lat="47.19533" lon="-1.72356">
        <ele>12</ele>
        <time>2014-04-08T12:46:36Z</time>
      </trkpt>
      <trkpt lat="47.19566" lon="-1.72384">
        <ele>13</ele>
        <time>2014-04-08T12:46:41Z</time>
      </trkpt>
      <trkpt lat="47.1959" lon="-1.72405">
        <ele>12</ele>
        <time>2014-04-08T12:46:45Z</time>
      </trkpt>
      <trkpt lat="47.19598" lon="-1.7244">
        <ele>13</ele>
        <time>2014-04-08T12:46:49Z</time>
      </trkpt>
      <trkpt lat="47.19592" lon="-1.72487">
        <ele>14</ele>
        <time>2014-04-08T12:46:54Z</time>
      </trkpt>
      <trkpt lat="47.1959" lon="-1.7252">
        <ele>11</ele>
        <time>2014-04-08T12:46:57Z</time>
      </trkpt>
      <trkpt lat="47.19582" lon="-1.72559">
        <ele>11</ele>
        <time>2014-04-08T12:47:01Z</time>
      </trkpt>
      <trkpt lat="47.19564" lon="-1.72603">
        <ele>9</ele>
        <time>2014-04-08T12:47:05Z</time>
      </trkpt>
      <trkpt lat="47.19552" lon="-1.72655">
        <ele>4</ele>
        <time>2014-04-08T12:47:09Z</time>
      </trkpt>
      <trkpt lat="47.19538" lon="-1.72725">
        <ele>1</ele>
        <time>2014-04-08T12:47:14Z</time>
      </trkpt>
      <trkpt lat="47.19537" lon="-1.72774">
        <ele>1</ele>
        <time>2014-04-08T12:47:17Z</time>
      </trkpt>
      <trkpt lat="47.19544" lon="-1.72841">
        <ele>5.4</ele>
        <time>2014-04-08T12:47:21Z</time>
      </trkpt>
      <trkpt lat="47.1955" lon="-1.72917">
        <ele>2</ele>
        <time>2014-04-08T12:47:26Z</time>
      </trkpt>
      <trkpt lat="47.19548" lon="-1.72958">
        <ele>2</ele>
        <time>2014-04-08T12:47:29Z</time>
      </trkpt>
      <trkpt lat="47.19546" lon="-1.7301">
        <ele>1</ele>
        <time>2014-04-08T12:47:33Z</time>
      </trkpt>
      <trkpt lat="47.19546" lon="-1.73073">
        <ele>5</ele>
        <time>2014-04-08T12:47:38Z</time>
      </trkpt>
      <trkpt lat="47.19548" lon="-1.73099">
        <ele>5</ele>
        <time>2014-04-08T12:47:40Z</time>
      </trkpt>
      <trkpt lat="47.19548" lon="-1.73134">
        <ele>4</ele>
        <time>2014-04-08T12:47:43Z</time>
      </trkpt>
      <trkpt lat="47.19548" lon="-1.7318">
        <ele>5</ele>
        <time>2014-04-08T12:47:47Z</time>
      </trkpt>
      <trkpt lat="47.19551" lon="-1.73252">
        <ele>5</ele>
        <time>2014-04-08T12:47:55Z</time>
      </trkpt>
      <trkpt lat="47.19557" lon="-1.73279">
        <ele>3</ele>
        <time>2014-04-08T12:47:58Z</time>
      </trkpt>
      <trkpt lat="47.1956" lon="-1.73308">
        <ele>3</ele>
        <time>2014-04-08T12:48:01Z</time>
      </trkpt>
      <trkpt lat="47.19563" lon="-1.73341">
        <ele>3</ele>
        <time>2014-04-08T12:48:06Z</time>
      </trkpt>
      <trkpt lat="47.19563" lon="-1.73354">
        <ele>3</ele>
        <time>2014-04-08T12:48:08Z</time>
      </trkpt>
      <trkpt lat="47.19567" lon="-1.73396">
        <ele>2</ele>
        <time>2014-04-08T12:48:14Z</time>
      </trkpt>
      <trkpt lat="47.1957" lon="-1.73406">
        <ele>1</ele>
        <time>2014-04-08T12:48:16Z</time>
      </trkpt>
      <trkpt lat="47.19576" lon="-1.73438">
        <ele>4</ele>
        <time>2014-04-08T12:48:22Z</time>
      </trkpt>
      <trkpt lat="47.1958" lon="-1.73459">
        <ele>5</ele>
        <time>2014-04-08T12:48:26Z</time>
      </trkpt>
      <trkpt lat="47.1959" lon="-1.73487">
        <ele>3</ele>
        <time>2014-04-08T12:48:31Z</time>
      </trkpt>
      <trkpt lat="47.19598" lon="-1.73501">
        <ele>3</ele>
        <time>2014-04-08T12:48:34Z</time>
      </trkpt>
      <trkpt lat="47.19608" lon="-1.73526">
        <ele>5</ele>
        <time>2014-04-08T12:48:39Z</time>
      </trkpt>
      <trkpt lat="47.19613" lon="-1.73545">
        <ele>7</ele>
        <time>2014-04-08T12:48:42Z</time>
      </trkpt>
      <trkpt lat="47.19618" lon="-1.73571">
        <ele>7</ele>
        <time>2014-04-08T12:48:46Z</time>
      </trkpt>
      <trkpt lat="47.19623" lon="-1.73601">
        <ele>7</ele>
        <time>2014-04-08T12:48:50Z</time>
      </trkpt>
      <trkpt lat="47.19624" lon="-1.73632">
        <ele>7</ele>
        <time>2014-04-08T12:48:54Z</time>
      </trkpt>
      <trkpt lat="47.19629" lon="-1.73662">
        <ele>9</ele>
        <time>2014-04-08T12:48:58Z</time>
      </trkpt>
      <trkpt lat="47.19626" lon="-1.73689">
        <ele>11</ele>
        <time>2014-04-08T12:49:02Z</time>
      </trkpt>
      <trkpt lat="47.19624" lon="-1.73723">
        <ele>11</ele>
        <time>2014-04-08T12:49:06Z</time>
      </trkpt>
      <trkpt lat="47.19624" lon="-1.73756">
        <ele>12</ele>
        <time>2014-04-08T12:49:10Z</time>
      </trkpt>
      <trkpt lat="47.19621" lon="-1.73791">
        <ele>10</ele>
        <time>2014-04-08T12:49:14Z</time>
      </trkpt>
      <trkpt lat="47.19613" lon="-1.73831">
        <ele>9</ele>
        <time>2014-04-08T12:49:18Z</time>
      </trkpt>
      <trkpt lat="47.19607" lon="-1.7387">
        <ele>12</ele>
        <time>2014-04-08T12:49:22Z</time>
      </trkpt>
      <trkpt lat="47.19599" lon="-1.73916">
        <ele>10</ele>
        <time>2014-04-08T12:49:26Z</time>
      </trkpt>
      <trkpt lat="47.19589" lon="-1.73968">
        <ele>9</ele>
        <time>2014-04-08T12:49:31Z</time>
      </trkpt>
      <trkpt lat="47.19588" lon="-1.74001">
        <ele>9</ele>
        <time>2014-04-08T12:49:34Z</time>
      </trkpt>
      <trkpt lat="47.19592" lon="-1.74044">
        <ele>8</ele>
        <time>2014-04-08T12:49:38Z</time>
      </trkpt>
      <trkpt lat="47.19599" lon="-1.74086">
        <ele>8</ele>
        <time>2014-04-08T12:49:42Z</time>
      </trkpt>
      <trkpt lat="47.19607" lon="-1.7414">
        <ele>7</ele>
        <time>2014-04-08T12:49:47Z</time>
      </trkpt>
      <trkpt lat="47.19611" lon="-1.74173">
        <ele>8</ele>
        <time>2014-04-08T12:49:50Z</time>
      </trkpt>
      <trkpt lat="47.19618" lon="-1.74215">
        <ele>8</ele>
        <time>2014-04-08T12:49:54Z</time>
      </trkpt>
      <trkpt lat="47.19625" lon="-1.74257">
        <ele>8</ele>
        <time>2014-04-08T12:49:58Z</time>
      </trkpt>
      <trkpt lat="47.19636" lon="-1.74305">
        <ele>11</ele>
        <time>2014-04-08T12:50:03Z</time>
      </trkpt>
      <trkpt lat="47.19649" lon="-1.74345">
        <ele>11</ele>
        <time>2014-04-08T12:50:07Z</time>
      </trkpt>
      <trkpt lat="47.19662" lon="-1.74389">
        <ele>13</ele>
        <time>2014-04-08T12:50:11Z</time>
      </trkpt>
      <trkpt lat="47.19675" lon="-1.74429">
        <ele>14</ele>
        <time>2014-04-08T12:50:15Z</time>
      </trkpt>
      <trkpt lat="47.19689" lon="-1.74471">
        <ele>14</ele>
        <time>2014-04-08T12:50:19Z</time>
      </trkpt>
      <trkpt lat="47.19703" lon="-1.74508">
        <ele>15</ele>
        <time>2014-04-08T12:50:23Z</time>
      </trkpt>
      <trkpt lat="47.1972" lon="-1.74546">
        <ele>14</ele>
        <time>2014-04-08T12:50:27Z</time>
      </trkpt>
      <trkpt lat="47.19736" lon="-1.74586">
        <ele>15</ele>
        <time>2014-04-08T12:50:31Z</time>
      </trkpt>
      <trkpt lat="47.19754" lon="-1.74625">
        <ele>14</ele>
        <time>2014-04-08T12:50:35Z</time>
      </trkpt>
      <trkpt lat="47.19767" lon="-1.74653">
        <ele>12</ele>
        <time>2014-04-08T12:50:38Z</time>
      </trkpt>
      <trkpt lat="47.19781" lon="-1.74701">
        <ele>12</ele>
        <time>2014-04-08T12:50:43Z</time>
      </trkpt>
      <trkpt lat="47.19791" lon="-1.74746">
        <ele>11</ele>
        <time>2014-04-08T12:50:47Z</time>
      </trkpt>
      <trkpt lat="47.19794" lon="-1.7477">
        <ele>11</ele>
        <time>2014-04-08T12:50:49Z</time>
      </trkpt>
      <trkpt lat="47.198" lon="-1.74829">
        <ele>9</ele>
        <time>2014-04-08T12:50:54Z</time>
      </trkpt>
      <trkpt lat="47.19814" lon="-1.74899">
        <ele>7</ele>
        <time>2014-04-08T12:50:59Z</time>
      </trkpt>
      <trkpt lat="47.19821" lon="-1.74948">
        <ele>9</ele>
        <time>2014-04-08T12:51:03Z</time>
      </trkpt>
      <trkpt lat="47.19831" lon="-1.74999">
        <ele>10</ele>
        <time>2014-04-08T12:51:08Z</time>
      </trkpt>
      <trkpt lat="47.19834" lon="-1.75008">
        <ele>11</ele>
        <time>2014-04-08T12:51:09Z</time>
      </trkpt>
      <trkpt lat="47.19856" lon="-1.7506">
        <ele>11</ele>
        <time>2014-04-08T12:51:15Z</time>
      </trkpt>
      <trkpt lat="47.19874" lon="-1.75103">
        <ele>10</ele>
        <time>2014-04-08T12:51:20Z</time>
      </trkpt>
      <trkpt lat="47.19886" lon="-1.75134">
        <ele>11</ele>
        <time>2014-04-08T12:51:24Z</time>
      </trkpt>
      <trkpt lat="47.19897" lon="-1.7516">
        <ele>11</ele>
        <time>2014-04-08T12:51:27Z</time>
      </trkpt>
      <trkpt lat="47.19905" lon="-1.75179">
        <ele>11</ele>
        <time>2014-04-08T12:51:29Z</time>
      </trkpt>
      <trkpt lat="47.19923" lon="-1.75222">
        <ele>12</ele>
        <time>2014-04-08T12:51:34Z</time>
      </trkpt>
      <trkpt lat="47.19945" lon="-1.75282">
        <ele>10</ele>
        <time>2014-04-08T12:51:40Z</time>
      </trkpt>
      <trkpt lat="47.19953" lon="-1.75311">
        <ele>9</ele>
        <time>2014-04-08T12:51:43Z</time>
      </trkpt>
      <trkpt lat="47.19958" lon="-1.7533">
        <ele>9</ele>
        <time>2014-04-08T12:51:45Z</time>
      </trkpt>
      <trkpt lat="47.19962" lon="-1.75374">
        <ele>8</ele>
        <time>2014-04-08T12:51:49Z</time>
      </trkpt>
      <trkpt lat="47.19972" lon="-1.75435">
        <ele>6</ele>
        <time>2014-04-08T12:51:55Z</time>
      </trkpt>
      <trkpt lat="47.19975" lon="-1.7546">
        <ele>8</ele>
        <time>2014-04-08T12:51:57Z</time>
      </trkpt>
      <trkpt lat="47.19991" lon="-1.75524">
        <ele>10</ele>
        <time>2014-04-08T12:52:04Z</time>
      </trkpt>
      <trkpt lat="47.19999" lon="-1.75541">
        <ele>11</ele>
        <time>2014-04-08T12:52:06Z</time>
      </trkpt>
      <trkpt lat="47.20016" lon="-1.75605">
        <ele>10</ele>
        <time>2014-04-08T12:52:12Z</time>
      </trkpt>
      <trkpt lat="47.20027" lon="-1.75646">
        <ele>10</ele>
        <time>2014-04-08T12:52:16Z</time>
      </trkpt>
      <trkpt lat="47.20034" lon="-1.75679">
        <ele>11</ele>
        <time>2014-04-08T12:52:19Z</time>
      </trkpt>
      <trkpt lat="47.20041" lon="-1.75704">
        <ele>11</ele>
        <time>2014-04-08T12:52:21Z</time>
      </trkpt>
      <trkpt lat="47.20051" lon="-1.7578">
        <ele>10</ele>
        <time>2014-04-08T12:52:27Z</time>
      </trkpt>
      <trkpt lat="47.20052" lon="-1.75828">
        <ele>10</ele>
        <time>2014-04-08T12:52:31Z</time>
      </trkpt>
      <trkpt lat="47.20052" lon="-1.75851">
        <ele>9</ele>
        <time>2014-04-08T12:52:33Z</time>
      </trkpt>
      <trkpt lat="47.20056" lon="-1.75938">
        <ele>4</ele>
        <time>2014-04-08T12:52:41Z</time>
      </trkpt>
      <trkpt lat="47.20059" lon="-1.75967">
        <ele>5</ele>
        <time>2014-04-08T12:52:44Z</time>
      </trkpt>
      <trkpt lat="47.20062" lon="-1.76024">
        <ele>3</ele>
        <time>2014-04-08T12:52:49Z</time>
      </trkpt>
      <trkpt lat="47.20062" lon="-1.76057">
        <ele>4</ele>
        <time>2014-04-08T12:52:52Z</time>
      </trkpt>
      <trkpt lat="47.20065" lon="-1.76111">
        <ele>8</ele>
        <time>2014-04-08T12:52:57Z</time>
      </trkpt>
      <trkpt lat="47.20065" lon="-1.76144">
        <ele>7</ele>
        <time>2014-04-08T12:53:00Z</time>
      </trkpt>
      <trkpt lat="47.20065" lon="-1.76183">
        <ele>6</ele>
        <time>2014-04-08T12:53:04Z</time>
      </trkpt>
      <trkpt lat="47.20064" lon="-1.76222">
        <ele>6</ele>
        <time>2014-04-08T12:53:08Z</time>
      </trkpt>
      <trkpt lat="47.20062" lon="-1.76271">
        <ele>6</ele>
        <time>2014-04-08T12:53:13Z</time>
      </trkpt>
      <trkpt lat="47.20059" lon="-1.76303">
        <ele>6</ele>
        <time>2014-04-08T12:53:16Z</time>
      </trkpt>
      <trkpt lat="47.20054" lon="-1.76344">
        <ele>5</ele>
        <time>2014-04-08T12:53:20Z</time>
      </trkpt>
      <trkpt lat="47.20052" lon="-1.76385">
        <ele>7</ele>
        <time>2014-04-08T12:53:24Z</time>
      </trkpt>
      <trkpt lat="47.20048" lon="-1.76437">
        <ele>7</ele>
        <time>2014-04-08T12:53:29Z</time>
      </trkpt>
      <trkpt lat="47.20046" lon="-1.76467">
        <ele>7</ele>
        <time>2014-04-08T12:53:32Z</time>
      </trkpt>
      <trkpt lat="47.20044" lon="-1.76505">
        <ele>8</ele>
        <time>2014-04-08T12:53:36Z</time>
      </trkpt>
      <trkpt lat="47.20042" lon="-1.76541">
        <ele>9</ele>
        <time>2014-04-08T12:53:40Z</time>
      </trkpt>
      <trkpt lat="47.20042" lon="-1.76559">
        <ele>9</ele>
        <time>2014-04-08T12:53:42Z</time>
      </trkpt>
      <trkpt lat="47.20039" lon="-1.76624">
        <ele>9</ele>
        <time>2014-04-08T12:53:48Z</time>
      </trkpt>
      <trkpt lat="47.20039" lon="-1.76666">
        <ele>9</ele>
        <time>2014-04-08T12:53:52Z</time>
      </trkpt>
      <trkpt lat="47.2004" lon="-1.76685">
        <ele>7</ele>
        <time>2014-04-08T12:53:54Z</time>
      </trkpt>
      <trkpt lat="47.20037" lon="-1.76743">
        <ele>7</ele>
        <time>2014-04-08T12:54:00Z</time>
      </trkpt>
      <trkpt lat="47.20035" lon="-1.76782">
        <ele>7</ele>
        <time>2014-04-08T12:54:04Z</time>
      </trkpt>
      <trkpt lat="47.20033" lon="-1.7682">
        <ele>9</ele>
        <time>2014-04-08T12:54:08Z</time>
      </trkpt>
      <trkpt lat="47.20032" lon="-1.76868">
        <ele>8</ele>
        <time>2014-04-08T12:54:13Z</time>
      </trkpt>
      <trkpt lat="47.20029" lon="-1.76886">
        <ele>10</ele>
        <time>2014-04-08T12:54:15Z</time>
      </trkpt>
      <trkpt lat="47.20027" lon="-1.76918">
        <ele>10</ele>
        <time>2014-04-08T12:54:18Z</time>
      </trkpt>
      <trkpt lat="47.20028" lon="-1.76962">
        <ele>9</ele>
        <time>2014-04-08T12:54:22Z</time>
      </trkpt>
      <trkpt lat="47.20028" lon="-1.77015">
        <ele>8</ele>
        <time>2014-04-08T12:54:27Z</time>
      </trkpt>
      <trkpt lat="47.20032" lon="-1.77066">
        <ele>7</ele>
        <time>2014-04-08T12:54:32Z</time>
      </trkpt>
      <trkpt lat="47.20033" lon="-1.77088">
        <ele>7</ele>
        <time>2014-04-08T12:54:34Z</time>
      </trkpt>
      <trkpt lat="47.20028" lon="-1.77159">
        <ele>6</ele>
        <time>2014-04-08T12:54:41Z</time>
      </trkpt>
      <trkpt lat="47.20027" lon="-1.77168">
        <ele>5</ele>
        <time>2014-04-08T12:54:42Z</time>
      </trkpt>
      <trkpt lat="47.20025" lon="-1.77233">
        <ele>6</ele>
        <time>2014-04-08T12:54:48Z</time>
      </trkpt>
      <trkpt lat="47.20025" lon="-1.77287">
        <ele>6</ele>
        <time>2014-04-08T12:54:53Z</time>
      </trkpt>
      <trkpt lat="47.20024" lon="-1.77318">
        <ele>6</ele>
        <time>2014-04-08T12:54:56Z</time>
      </trkpt>
      <trkpt lat="47.20023" lon="-1.77358">
        <ele>7</ele>
        <time>2014-04-08T12:55:00Z</time>
      </trkpt>
      <trkpt lat="47.20024" lon="-1.77386">
        <ele>6</ele>
        <time>2014-04-08T12:55:03Z</time>
      </trkpt>
      <trkpt lat="47.20024" lon="-1.77437">
        <ele>8</ele>
        <time>2014-04-08T12:55:08Z</time>
      </trkpt>
      <trkpt lat="47.20023" lon="-1.77475">
        <ele>9</ele>
        <time>2014-04-08T12:55:12Z</time>
      </trkpt>
      <trkpt lat="47.20021" lon="-1.77524">
        <ele>9</ele>
        <time>2014-04-08T12:55:17Z</time>
      </trkpt>
      <trkpt lat="47.2002" lon="-1.77554">
        <ele>8</ele>
        <time>2014-04-08T12:55:20Z</time>
      </trkpt>
      <trkpt lat="47.20023" lon="-1.77593">
        <ele>6</ele>
        <time>2014-04-08T12:55:24Z</time>
      </trkpt>
      <trkpt lat="47.20024" lon="-1.77639">
        <ele>5</ele>
        <time>2014-04-08T12:55:28Z</time>
      </trkpt>
      <trkpt lat="47.20026" lon="-1.77659">
        <ele>5</ele>
        <time>2014-04-08T12:55:30Z</time>
      </trkpt>
      <trkpt lat="47.20027" lon="-1.77747">
        <ele>4</ele>
        <time>2014-04-08T12:55:37Z</time>
      </trkpt>
      <trkpt lat="47.20003" lon="-1.77788">
        <ele>2</ele>
        <time>2014-04-08T12:55:41Z</time>
      </trkpt>
      <trkpt lat="47.19977" lon="-1.77816">
        <ele>4.9</ele>
        <time>2014-04-08T12:55:44Z</time>
      </trkpt>
      <trkpt lat="47.19946" lon="-1.77846">
        <ele>-1</ele>
        <time>2014-04-08T12:55:48Z</time>
      </trkpt>
      <trkpt lat="47.19914" lon="-1.7788">
        <ele>7.1</ele>
        <time>2014-04-08T12:55:52Z</time>
      </trkpt>
      <trkpt lat="47.199" lon="-1.77893">
        <ele>2</ele>
        <time>2014-04-08T12:55:54Z</time>
      </trkpt>
      <trkpt lat="47.19877" lon="-1.77925">
        <ele>7.7</ele>
        <time>2014-04-08T12:55:58Z</time>
      </trkpt>
      <trkpt lat="47.19845" lon="-1.7797">
        <ele>-1</ele>
        <time>2014-04-08T12:56:04Z</time>
      </trkpt>
      <trkpt lat="47.19824" lon="-1.78">
        <ele>-2</ele>
        <time>2014-04-08T12:56:08Z</time>
      </trkpt>
      <trkpt lat="47.19806" lon="-1.78031">
        <ele>-2</ele>
        <time>2014-04-08T12:56:12Z</time>
      </trkpt>
      <trkpt lat="47.19798" lon="-1.78046">
        <ele>-2</ele>
        <time>2014-04-08T12:56:14Z</time>
      </trkpt>
      <trkpt lat="47.19768" lon="-1.78102">
        <ele>1</ele>
        <time>2014-04-08T12:56:22Z</time>
      </trkpt>
      <trkpt lat="47.1976" lon="-1.78126">
        <ele>13</ele>
        <time>2014-04-08T12:56:25Z</time>
      </trkpt>
      <trkpt lat="47.19748" lon="-1.7816">
        <ele>1</ele>
        <time>2014-04-08T12:56:29Z</time>
      </trkpt>
      <trkpt lat="47.19738" lon="-1.78191">
        <ele>5</ele>
        <time>2014-04-08T12:56:33Z</time>
      </trkpt>
      <trkpt lat="47.19727" lon="-1.78215">
        <ele>5</ele>
        <time>2014-04-08T12:56:36Z</time>
      </trkpt>
      <trkpt lat="47.19723" lon="-1.78258">
        <ele>5</ele>
        <time>2014-04-08T12:56:41Z</time>
      </trkpt>
      <trkpt lat="47.19725" lon="-1.78285">
        <ele>4</ele>
        <time>2014-04-08T12:56:44Z</time>
      </trkpt>
      <trkpt lat="47.19735" lon="-1.78334">
        <ele>4</ele>
        <time>2014-04-08T12:56:49Z</time>
      </trkpt>
      <trkpt lat="47.1974" lon="-1.78372">
        <ele>5</ele>
        <time>2014-04-08T12:56:53Z</time>
      </trkpt>
      <trkpt lat="47.1974" lon="-1.78392">
        <ele>5</ele>
        <time>2014-04-08T12:56:55Z</time>
      </trkpt>
      <trkpt lat="47.19733" lon="-1.78447">
        <ele>5</ele>
        <time>2014-04-08T12:57:00Z</time>
      </trkpt>
      <trkpt lat="47.1972" lon="-1.78512">
        <ele>3</ele>
        <time>2014-04-08T12:57:06Z</time>
      </trkpt>
      <trkpt lat="47.19715" lon="-1.78551">
        <ele>3</ele>
        <time>2014-04-08T12:57:09Z</time>
      </trkpt>
      <trkpt lat="47.19708" lon="-1.78602">
        <ele>2</ele>
        <time>2014-04-08T12:57:13Z</time>
      </trkpt>
      <trkpt lat="47.197" lon="-1.78655">
        <ele>7.6</ele>
        <time>2014-04-08T12:57:17Z</time>
      </trkpt>
      <trkpt lat="47.19688" lon="-1.78712">
        <ele>5.5</ele>
        <time>2014-04-08T12:57:21Z</time>
      </trkpt>
      <trkpt lat="47.19682" lon="-1.78757">
        <ele>4.4</ele>
        <time>2014-04-08T12:57:24Z</time>
      </trkpt>
      <trkpt lat="47.19672" lon="-1.78812">
        <ele>-2</ele>
        <time>2014-04-08T12:57:28Z</time>
      </trkpt>
      <trkpt lat="47.19665" lon="-1.78879">
        <ele>-3</ele>
        <time>2014-04-08T12:57:33Z</time>
      </trkpt>
      <trkpt lat="47.19665" lon="-1.78933">
        <ele>-2</ele>
        <time>2014-04-08T12:57:37Z</time>
      </trkpt>
      <trkpt lat="47.19673" lon="-1.78985">
        <ele>-3</ele>
        <time>2014-04-08T12:57:41Z</time>
      </trkpt>
      <trkpt lat="47.1969" lon="-1.79029">
        <ele>3.2</ele>
        <time>2014-04-08T12:57:45Z</time>
      </trkpt>
      <trkpt lat="47.19706" lon="-1.79071">
        <ele>-2</ele>
        <time>2014-04-08T12:57:49Z</time>
      </trkpt>
      <trkpt lat="47.19725" lon="-1.7911">
        <ele>4</ele>
        <time>2014-04-08T12:57:53Z</time>
      </trkpt>
      <trkpt lat="47.19746" lon="-1.79155">
        <ele>4.7</ele>
        <time>2014-04-08T12:57:58Z</time>
      </trkpt>
      <trkpt lat="47.19755" lon="-1.79183">
        <ele>4.9</ele>
        <time>2014-04-08T12:58:01Z</time>
      </trkpt>
      <trkpt lat="47.19767" lon="-1.79219">
        <ele>-1</ele>
        <time>2014-04-08T12:58:05Z</time>
      </trkpt>
      <trkpt lat="47.19776" lon="-1.79248">
        <ele>-2</ele>
        <time>2014-04-08T12:58:08Z</time>
      </trkpt>
      <trkpt lat="47.19786" lon="-1.79278">
        <ele>6.3</ele>
        <time>2014-04-08T12:58:11Z</time>
      </trkpt>
      <trkpt lat="47.19808" lon="-1.79341">
        <ele>7.4</ele>
        <time>2014-04-08T12:58:18Z</time>
      </trkpt>
      <trkpt lat="47.19814" lon="-1.79368">
        <ele>8.6</ele>
        <time>2014-04-08T12:58:21Z</time>
      </trkpt>
      <trkpt lat="47.19817" lon="-1.79407">
        <ele>2</ele>
        <time>2014-04-08T12:58:26Z</time>
      </trkpt>
      <trkpt lat="47.19818" lon="-1.79433">
        <ele>3</ele>
        <time>2014-04-08T12:58:29Z</time>
      </trkpt>
      <trkpt lat="47.19822" lon="-1.79457">
        <ele>2</ele>
        <time>2014-04-08T12:58:32Z</time>
      </trkpt>
      <trkpt lat="47.19823" lon="-1.79501">
        <ele>3</ele>
        <time>2014-04-08T12:58:38Z</time>
      </trkpt>
      <trkpt lat="47.19823" lon="-1.79507">
        <ele>4</ele>
        <time>2014-04-08T12:58:39Z</time>
      </trkpt>
      <trkpt lat="47.19829" lon="-1.79555">
        <ele>8</ele>
        <time>2014-04-08T12:58:45Z</time>
      </trkpt>
      <trkpt lat="47.19833" lon="-1.79587">
        <ele>8</ele>
        <time>2014-04-08T12:58:49Z</time>
      </trkpt>
      <trkpt lat="47.19836" lon="-1.79619">
        <ele>9</ele>
        <time>2014-04-08T12:58:53Z</time>
      </trkpt>
      <trkpt lat="47.19837" lon="-1.79642">
        <ele>9</ele>
        <time>2014-04-08T12:58:56Z</time>
      </trkpt>
      <trkpt lat="47.19833" lon="-1.79677">
        <ele>9</ele>
        <time>2014-04-08T12:59:01Z</time>
      </trkpt>
      <trkpt lat="47.19831" lon="-1.79713">
        <ele>10</ele>
        <time>2014-04-08T12:59:06Z</time>
      </trkpt>
      <trkpt lat="47.19831" lon="-1.79742">
        <ele>11</ele>
        <time>2014-04-08T12:59:10Z</time>
      </trkpt>
      <trkpt lat="47.19832" lon="-1.79766">
        <ele>15</ele>
        <time>2014-04-08T12:59:13Z</time>
      </trkpt>
      <trkpt lat="47.1983" lon="-1.79798">
        <ele>14</ele>
        <time>2014-04-08T12:59:17Z</time>
      </trkpt>
      <trkpt lat="47.19833" lon="-1.79838">
        <ele>13</ele>
        <time>2014-04-08T12:59:22Z</time>
      </trkpt>
      <trkpt lat="47.19836" lon="-1.79862">
        <ele>13</ele>
        <time>2014-04-08T12:59:25Z</time>
      </trkpt>
      <trkpt lat="47.19843" lon="-1.79894">
        <ele>13</ele>
        <time>2014-04-08T12:59:29Z</time>
      </trkpt>
      <trkpt lat="47.19851" lon="-1.79923">
        <ele>15</ele>
        <time>2014-04-08T12:59:33Z</time>
      </trkpt>
      <trkpt lat="47.19858" lon="-1.79944">
        <ele>16</ele>
        <time>2014-04-08T12:59:36Z</time>
      </trkpt>
      <trkpt lat="47.19862" lon="-1.79976">
        <ele>14</ele>
        <time>2014-04-08T12:59:40Z</time>
      </trkpt>
      <trkpt lat="47.19868" lon="-1.80011">
        <ele>14</ele>
        <time>2014-04-08T12:59:44Z</time>
      </trkpt>
      <trkpt lat="47.19878" lon="-1.80059">
        <ele>15</ele>
        <time>2014-04-08T12:59:50Z</time>
      </trkpt>
      <trkpt lat="47.19883" lon="-1.80083">
        <ele>15</ele>
        <time>2014-04-08T12:59:53Z</time>
      </trkpt>
      <trkpt lat="47.1989" lon="-1.80122">
        <ele>16</ele>
        <time>2014-04-08T12:59:58Z</time>
      </trkpt>
      <trkpt lat="47.19893" lon="-1.80141">
        <ele>16</ele>
        <time>2014-04-08T13:00:00Z</time>
      </trkpt>
      <trkpt lat="47.19901" lon="-1.80175">
        <ele>16</ele>
        <time>2014-04-08T13:00:04Z</time>
      </trkpt>
      <trkpt lat="47.19917" lon="-1.80233">
        <ele>15</ele>
        <time>2014-04-08T13:00:10Z</time>
      </trkpt>
      <trkpt lat="47.1992" lon="-1.80278">
        <ele>16</ele>
        <time>2014-04-08T13:00:15Z</time>
      </trkpt>
      <trkpt lat="47.19926" lon="-1.8032">
        <ele>16</ele>
        <time>2014-04-08T13:00:19Z</time>
      </trkpt>
      <trkpt lat="47.19926" lon="-1.80331">
        <ele>16</ele>
        <time>2014-04-08T13:00:20Z</time>
      </trkpt>
      <trkpt lat="47.19926" lon="-1.80401">
        <ele>16</ele>
        <time>2014-04-08T13:00:27Z</time>
      </trkpt>
      <trkpt lat="47.19917" lon="-1.80442">
        <ele>15</ele>
        <time>2014-04-08T13:00:31Z</time>
      </trkpt>
      <trkpt lat="47.19908" lon="-1.8047">
        <ele>14</ele>
        <time>2014-04-08T13:00:34Z</time>
      </trkpt>
      <trkpt lat="47.19889" lon="-1.80507">
        <ele>12</ele>
        <time>2014-04-08T13:00:38Z</time>
      </trkpt>
      <trkpt lat="47.1988" lon="-1.80527">
        <ele>10</ele>
        <time>2014-04-08T13:00:40Z</time>
      </trkpt>
      <trkpt lat="47.19858" lon="-1.80604">
        <ele>9</ele>
        <time>2014-04-08T13:00:47Z</time>
      </trkpt>
      <trkpt lat="47.19852" lon="-1.80655">
        <ele>8</ele>
        <time>2014-04-08T13:00:51Z</time>
      </trkpt>
      <trkpt lat="47.19849" lon="-1.80682">
        <ele>8</ele>
        <time>2014-04-08T13:00:53Z</time>
      </trkpt>
      <trkpt lat="47.19838" lon="-1.80744">
        <ele>7</ele>
        <time>2014-04-08T13:00:58Z</time>
      </trkpt>
      <trkpt lat="47.19822" lon="-1.80792">
        <ele>5</ele>
        <time>2014-04-08T13:01:02Z</time>
      </trkpt>
      <trkpt lat="47.19814" lon="-1.80816">
        <ele>5</ele>
        <time>2014-04-08T13:01:04Z</time>
      </trkpt>
      <trkpt lat="47.19785" lon="-1.80897">
        <ele>4</ele>
        <time>2014-04-08T13:01:10Z</time>
      </trkpt>
      <trkpt lat="47.19771" lon="-1.80933">
        <ele>6</ele>
        <time>2014-04-08T13:01:13Z</time>
      </trkpt>
      <trkpt lat="47.19737" lon="-1.8099">
        <ele>4</ele>
        <time>2014-04-08T13:01:18Z</time>
      </trkpt>
      <trkpt lat="47.19719" lon="-1.81025">
        <ele>2</ele>
        <time>2014-04-08T13:01:21Z</time>
      </trkpt>
      <trkpt lat="47.19707" lon="-1.81093">
        <ele>1</ele>
        <time>2014-04-08T13:01:26Z</time>
      </trkpt>
      <trkpt lat="47.19712" lon="-1.81146">
        <ele>4.7</ele>
        <time>2014-04-08T13:01:30Z</time>
      </trkpt>
      <trkpt lat="47.19723" lon="-1.81198">
        <ele>2</ele>
        <time>2014-04-08T13:01:34Z</time>
      </trkpt>
      <trkpt lat="47.19734" lon="-1.81219">
        <ele>4.5</ele>
        <time>2014-04-08T13:01:36Z</time>
      </trkpt>
      <trkpt lat="47.19769" lon="-1.8128">
        <ele>5.7</ele>
        <time>2014-04-08T13:01:42Z</time>
      </trkpt>
      <trkpt lat="47.19787" lon="-1.8133">
        <ele>7.3</ele>
        <time>2014-04-08T13:01:47Z</time>
      </trkpt>
      <trkpt lat="47.19793" lon="-1.8135">
        <ele>2</ele>
        <time>2014-04-08T13:01:49Z</time>
      </trkpt>
      <trkpt lat="47.19801" lon="-1.81391">
        <ele>1</ele>
        <time>2014-04-08T13:01:54Z</time>
      </trkpt>
      <trkpt lat="47.19815" lon="-1.8143">
        <ele>2</ele>
        <time>2014-04-08T13:01:59Z</time>
      </trkpt>
      <trkpt lat="47.19823" lon="-1.81454">
        <ele>3</ele>
        <time>2014-04-08T13:02:02Z</time>
      </trkpt>
      <trkpt lat="47.19829" lon="-1.81467">
        <ele>3</ele>
        <time>2014-04-08T13:02:04Z</time>
      </trkpt>
      <trkpt lat="47.19841" lon="-1.81497">
        <ele>3</ele>
        <time>2014-04-08T13:02:08Z</time>
      </trkpt>
      <trkpt lat="47.19858" lon="-1.81547">
        <ele>3</ele>
        <time>2014-04-08T13:02:14Z</time>
      </trkpt>
      <trkpt lat="47.19874" lon="-1.81598">
        <ele>4</ele>
        <time>2014-04-08T13:02:19Z</time>
      </trkpt>
      <trkpt lat="47.1988" lon="-1.81625">
        <ele>4</ele>
        <time>2014-04-08T13:02:22Z</time>
      </trkpt>
      <trkpt lat="47.19883" lon="-1.81653">
        <ele>4</ele>
        <time>2014-04-08T13:02:25Z</time>
      </trkpt>
      <trkpt lat="47.19887" lon="-1.817">
        <ele>3</ele>
        <time>2014-04-08T13:02:31Z</time>
      </trkpt>
      <trkpt lat="47.1989" lon="-1.81721">
        <ele>4</ele>
        <time>2014-04-08T13:02:33Z</time>
      </trkpt>
      <trkpt lat="47.19898" lon="-1.81761">
        <ele>5</ele>
        <time>2014-04-08T13:02:37Z</time>
      </trkpt>
      <trkpt lat="47.19907" lon="-1.81813">
        <ele>5</ele>
        <time>2014-04-08T13:02:43Z</time>
      </trkpt>
      <trkpt lat="47.19916" lon="-1.81849">
        <ele>4</ele>
        <time>2014-04-08T13:02:47Z</time>
      </trkpt>
      <trkpt lat="47.19922" lon="-1.81884">
        <ele>4</ele>
        <time>2014-04-08T13:02:51Z</time>
      </trkpt>
      <trkpt lat="47.19924" lon="-1.81893">
        <ele>4</ele>
        <time>2014-04-08T13:02:52Z</time>
      </trkpt>
      <trkpt lat="47.19935" lon="-1.81934">
        <ele>3</ele>
        <time>2014-04-08T13:02:56Z</time>
      </trkpt>
      <trkpt lat="47.19948" lon="-1.81991">
        <ele>15.6</ele>
        <time>2014-04-08T13:03:02Z</time>
      </trkpt>
      <trkpt lat="47.19954" lon="-1.82022">
        <ele>1</ele>
        <time>2014-04-08T13:03:06Z</time>
      </trkpt>
      <trkpt lat="47.19958" lon="-1.82053">
        <ele>3</ele>
        <time>2014-04-08T13:03:10Z</time>
      </trkpt>
      <trkpt lat="47.19967" lon="-1.82102">
        <ele>4</ele>
        <time>2014-04-08T13:03:15Z</time>
      </trkpt>
      <trkpt lat="47.19966" lon="-1.82134">
        <ele>6</ele>
        <time>2014-04-08T13:03:19Z</time>
      </trkpt>
      <trkpt lat="47.19954" lon="-1.82174">
        <ele>9</ele>
        <time>2014-04-08T13:03:24Z</time>
      </trkpt>
      <trkpt lat="47.19945" lon="-1.82188">
        <ele>10</ele>
        <time>2014-04-08T13:03:26Z</time>
      </trkpt>
      <trkpt lat="47.19935" lon="-1.82209">
        <ele>9</ele>
        <time>2014-04-08T13:03:29Z</time>
      </trkpt>
      <trkpt lat="47.19918" lon="-1.82239">
        <ele>8</ele>
        <time>2014-04-08T13:03:33Z</time>
      </trkpt>
      <trkpt lat="47.19899" lon="-1.82294">
        <ele>10</ele>
        <time>2014-04-08T13:03:40Z</time>
      </trkpt>
      <trkpt lat="47.19898" lon="-1.82303">
        <ele>11</ele>
        <time>2014-04-08T13:03:41Z</time>
      </trkpt>
      <trkpt lat="47.19875" lon="-1.82357">
        <ele>11</ele>
        <time>2014-04-08T13:03:48Z</time>
      </trkpt>
      <trkpt lat="47.19863" lon="-1.82381">
        <ele>10</ele>
        <time>2014-04-08T13:03:51Z</time>
      </trkpt>
      <trkpt lat="47.19854" lon="-1.82422">
        <ele>10</ele>
        <time>2014-04-08T13:03:56Z</time>
      </trkpt>
      <trkpt lat="47.19843" lon="-1.82446">
        <ele>9</ele>
        <time>2014-04-08T13:03:59Z</time>
      </trkpt>
      <trkpt lat="47.19824" lon="-1.82481">
        <ele>7</ele>
        <time>2014-04-08T13:04:03Z</time>
      </trkpt>
      <trkpt lat="47.19803" lon="-1.8252">
        <ele>8</ele>
        <time>2014-04-08T13:04:08Z</time>
      </trkpt>
      <trkpt lat="47.19787" lon="-1.82542">
        <ele>8</ele>
        <time>2014-04-08T13:04:11Z</time>
      </trkpt>
      <trkpt lat="47.19766" lon="-1.82572">
        <ele>7</ele>
        <time>2014-04-08T13:04:15Z</time>
      </trkpt>
      <trkpt lat="47.19752" lon="-1.82591">
        <ele>6</ele>
        <time>2014-04-08T13:04:18Z</time>
      </trkpt>
      <trkpt lat="47.19729" lon="-1.82646">
        <ele>2</ele>
        <time>2014-04-08T13:04:24Z</time>
      </trkpt>
      <trkpt lat="47.19721" lon="-1.82673">
        <ele>3</ele>
        <time>2014-04-08T13:04:27Z</time>
      </trkpt>
      <trkpt lat="47.19715" lon="-1.82709">
        <ele>5</ele>
        <time>2014-04-08T13:04:31Z</time>
      </trkpt>
      <trkpt lat="47.19703" lon="-1.82754">
        <ele>5</ele>
        <time>2014-04-08T13:04:36Z</time>
      </trkpt>
      <trkpt lat="47.19696" lon="-1.82795">
        <ele>6</ele>
        <time>2014-04-08T13:04:40Z</time>
      </trkpt>
      <trkpt lat="47.19691" lon="-1.82827">
        <ele>6</ele>
        <time>2014-04-08T13:04:43Z</time>
      </trkpt>
      <trkpt lat="47.19685" lon="-1.8286">
        <ele>7</ele>
        <time>2014-04-08T13:04:47Z</time>
      </trkpt>
      <trkpt lat="47.19682" lon="-1.8288">
        <ele>8</ele>
        <time>2014-04-08T13:04:49Z</time>
      </trkpt>
      <trkpt lat="47.19669" lon="-1.82951">
        <ele>7</ele>
        <time>2014-04-08T13:04:56Z</time>
      </trkpt>
      <trkpt lat="47.19667" lon="-1.82959">
        <ele>7</ele>
        <time>2014-04-08T13:04:57Z</time>
      </trkpt>
      <trkpt lat="47.19657" lon="-1.83016">
        <ele>6</ele>
        <time>2014-04-08T13:05:03Z</time>
      </trkpt>
      <trkpt lat="47.19653" lon="-1.83057">
        <ele>9</ele>
        <time>2014-04-08T13:05:07Z</time>
      </trkpt>
      <trkpt lat="47.19642" lon="-1.83101">
        <ele>7</ele>
        <time>2014-04-08T13:05:11Z</time>
      </trkpt>
      <trkpt lat="47.19634" lon="-1.83141">
        <ele>6</ele>
        <time>2014-04-08T13:05:15Z</time>
      </trkpt>
      <trkpt lat="47.19628" lon="-1.83182">
        <ele>7</ele>
        <time>2014-04-08T13:05:19Z</time>
      </trkpt>
      <trkpt lat="47.19628" lon="-1.83202">
        <ele>6</ele>
        <time>2014-04-08T13:05:21Z</time>
      </trkpt>
      <trkpt lat="47.1963" lon="-1.83276">
        <ele>7</ele>
        <time>2014-04-08T13:05:28Z</time>
      </trkpt>
      <trkpt lat="47.1963" lon="-1.83315">
        <ele>4</ele>
        <time>2014-04-08T13:05:32Z</time>
      </trkpt>
      <trkpt lat="47.1963" lon="-1.83355">
        <ele>4</ele>
        <time>2014-04-08T13:05:36Z</time>
      </trkpt>
      <trkpt lat="47.19633" lon="-1.83385">
        <ele>3</ele>
        <time>2014-04-08T13:05:39Z</time>
      </trkpt>
      <trkpt lat="47.19635" lon="-1.83429">
        <ele>4</ele>
        <time>2014-04-08T13:05:43Z</time>
      </trkpt>
      <trkpt lat="47.19638" lon="-1.83473">
        <ele>7</ele>
        <time>2014-04-08T13:05:47Z</time>
      </trkpt>
      <trkpt lat="47.19635" lon="-1.83527">
        <ele>6</ele>
        <time>2014-04-08T13:05:52Z</time>
      </trkpt>
      <trkpt lat="47.19632" lon="-1.83556">
        <ele>6</ele>
        <time>2014-04-08T13:05:55Z</time>
      </trkpt>
      <trkpt lat="47.19626" lon="-1.83615">
        <ele>5</ele>
        <time>2014-04-08T13:06:00Z</time>
      </trkpt>
      <trkpt lat="47.19624" lon="-1.83624">
        <ele>5</ele>
        <time>2014-04-08T13:06:01Z</time>
      </trkpt>
      <trkpt lat="47.1961" lon="-1.83689">
        <ele>4</ele>
        <time>2014-04-08T13:06:07Z</time>
      </trkpt>
      <trkpt lat="47.19614" lon="-1.83735">
        <ele>4</ele>
        <time>2014-04-08T13:06:11Z</time>
      </trkpt>
      <trkpt lat="47.19625" lon="-1.83785">
        <ele>6</ele>
        <time>2014-04-08T13:06:16Z</time>
      </trkpt>
      <trkpt lat="47.19631" lon="-1.83816">
        <ele>7</ele>
        <time>2014-04-08T13:06:19Z</time>
      </trkpt>
      <trkpt lat="47.19639" lon="-1.83863">
        <ele>7</ele>
        <time>2014-04-08T13:06:23Z</time>
      </trkpt>
      <trkpt lat="47.19648" lon="-1.83905">
        <ele>7</ele>
        <time>2014-04-08T13:06:27Z</time>
      </trkpt>
      <trkpt lat="47.19652" lon="-1.83927">
        <ele>7</ele>
        <time>2014-04-08T13:06:29Z</time>
      </trkpt>
      <trkpt lat="47.19666" lon="-1.84009">
        <ele>4</ele>
        <time>2014-04-08T13:06:36Z</time>
      </trkpt>
      <trkpt lat="47.19669" lon="-1.84054">
        <ele>3</ele>
        <time>2014-04-08T13:06:40Z</time>
      </trkpt>
      <trkpt lat="47.19664" lon="-1.84094">
        <ele>4</ele>
        <time>2014-04-08T13:06:44Z</time>
      </trkpt>
      <trkpt lat="47.19645" lon="-1.84136">
        <ele>3</ele>
        <time>2014-04-08T13:06:49Z</time>
      </trkpt>
      <trkpt lat="47.19636" lon="-1.84151">
        <ele>3</ele>
        <time>2014-04-08T13:06:51Z</time>
      </trkpt>
      <trkpt lat="47.19611" lon="-1.84202">
        <ele>7</ele>
        <time>2014-04-08T13:06:57Z</time>
      </trkpt>
      <trkpt lat="47.19588" lon="-1.84236">
        <ele>8</ele>
        <time>2014-04-08T13:07:01Z</time>
      </trkpt>
      <trkpt lat="47.19574" lon="-1.84263">
        <ele>5</ele>
        <time>2014-04-08T13:07:04Z</time>
      </trkpt>
      <trkpt lat="47.19563" lon="-1.84278">
        <ele>6</ele>
        <time>2014-04-08T13:07:06Z</time>
      </trkpt>
      <trkpt lat="47.19528" lon="-1.8433">
        <ele>6</ele>
        <time>2014-04-08T13:07:12Z</time>
      </trkpt>
      <trkpt lat="47.19508" lon="-1.84372">
        <ele>5</ele>
        <time>2014-04-08T13:07:17Z</time>
      </trkpt>
      <trkpt lat="47.19489" lon="-1.84404">
        <ele>6</ele>
        <time>2014-04-08T13:07:21Z</time>
      </trkpt>
      <trkpt lat="47.19472" lon="-1.84432">
        <ele>6</ele>
        <time>2014-04-08T13:07:24Z</time>
      </trkpt>
      <trkpt lat="47.1946" lon="-1.8445">
        <ele>5</ele>
        <time>2014-04-08T13:07:26Z</time>
      </trkpt>
      <trkpt lat="47.19435" lon="-1.84495">
        <ele>13.7</ele>
        <time>2014-04-08T13:07:31Z</time>
      </trkpt>
      <trkpt lat="47.19406" lon="-1.84544">
        <ele>2</ele>
        <time>2014-04-08T13:07:37Z</time>
      </trkpt>
      <trkpt lat="47.19388" lon="-1.84566">
        <ele>4</ele>
        <time>2014-04-08T13:07:41Z</time>
      </trkpt>
      <trkpt lat="47.19379" lon="-1.84581">
        <ele>4</ele>
        <time>2014-04-08T13:07:44Z</time>
      </trkpt>
      <trkpt lat="47.19375" lon="-1.8462">
        <ele>8</ele>
        <time>2014-04-08T13:07:49Z</time>
      </trkpt>
      <trkpt lat="47.19379" lon="-1.84649">
        <ele>8</ele>
        <time>2014-04-08T13:07:52Z</time>
      </trkpt>
      <trkpt lat="47.19381" lon="-1.84691">
        <ele>5</ele>
        <time>2014-04-08T13:07:56Z</time>
      </trkpt>
      <trkpt lat="47.19381" lon="-1.84733">
        <ele>5</ele>
        <time>2014-04-08T13:08:00Z</time>
      </trkpt>
      <trkpt lat="47.19382" lon="-1.84777">
        <ele>3</ele>
        <time>2014-04-08T13:08:04Z</time>
      </trkpt>
      <trkpt lat="47.19381" lon="-1.84797">
        <ele>4</ele>
        <time>2014-04-08T13:08:06Z</time>
      </trkpt>
      <trkpt lat="47.1938" lon="-1.84858">
        <ele>2</ele>
        <time>2014-04-08T13:08:12Z</time>
      </trkpt>
      <trkpt lat="47.19382" lon="-1.84914">
        <ele>5</ele>
        <time>2014-04-08T13:08:17Z</time>
      </trkpt>
      <trkpt lat="47.19383" lon="-1.84935">
        <ele>4</ele>
        <time>2014-04-08T13:08:19Z</time>
      </trkpt>
      <trkpt lat="47.19386" lon="-1.84991">
        <ele>5</ele>
        <time>2014-04-08T13:08:24Z</time>
      </trkpt>
      <trkpt lat="47.19389" lon="-1.85016">
        <ele>6</ele>
        <time>2014-04-08T13:08:26Z</time>
      </trkpt>
      <trkpt lat="47.19393" lon="-1.85103">
        <ele>6</ele>
        <time>2014-04-08T13:08:33Z</time>
      </trkpt>
      <trkpt lat="47.19401" lon="-1.85137">
        <ele>6</ele>
        <time>2014-04-08T13:08:36Z</time>
      </trkpt>
      <trkpt lat="47.19414" lon="-1.85187">
        <ele>4</ele>
        <time>2014-04-08T13:08:40Z</time>
      </trkpt>
      <trkpt lat="47.19419" lon="-1.85205">
        <ele>5</ele>
        <time>2014-04-08T13:08:42Z</time>
      </trkpt>
      <trkpt lat="47.19444" lon="-1.85298">
        <ele>3</ele>
        <time>2014-04-08T13:08:49Z</time>
      </trkpt>
      <trkpt lat="47.19461" lon="-1.85344">
        <ele>2</ele>
        <time>2014-04-08T13:08:53Z</time>
      </trkpt>
      <trkpt lat="47.19479" lon="-1.85369">
        <ele>2.4</ele>
        <time>2014-04-08T13:08:56Z</time>
      </trkpt>
      <trkpt lat="47.19497" lon="-1.85403">
        <ele>-1</ele>
        <time>2014-04-08T13:08:59Z</time>
      </trkpt>
      <trkpt lat="47.19528" lon="-1.85447">
        <ele>-2</ele>
        <time>2014-04-08T13:09:04Z</time>
      </trkpt>
      <trkpt lat="47.19552" lon="-1.85483">
        <ele>-6</ele>
        <time>2014-04-08T13:09:08Z</time>
      </trkpt>
      <trkpt lat="47.19575" lon="-1.85518">
        <ele>-6</ele>
        <time>2014-04-08T13:09:12Z</time>
      </trkpt>
      <trkpt lat="47.19593" lon="-1.8555">
        <ele>-8</ele>
        <time>2014-04-08T13:09:16Z</time>
      </trkpt>
      <trkpt lat="47.1961" lon="-1.85576">
        <ele>-8</ele>
        <time>2014-04-08T13:09:19Z</time>
      </trkpt>
      <trkpt lat="47.19641" lon="-1.8562">
        <ele>-7</ele>
        <time>2014-04-08T13:09:24Z</time>
      </trkpt>
      <trkpt lat="47.19664" lon="-1.85656">
        <ele>-8</ele>
        <time>2014-04-08T13:09:28Z</time>
      </trkpt>
      <trkpt lat="47.19689" lon="-1.85692">
        <ele>-7</ele>
        <time>2014-04-08T13:09:32Z</time>
      </trkpt>
      <trkpt lat="47.19709" lon="-1.85724">
        <ele>-7</ele>
        <time>2014-04-08T13:09:36Z</time>
      </trkpt>
      <trkpt lat="47.19731" lon="-1.85755">
        <ele>-8</ele>
        <time>2014-04-08T13:09:40Z</time>
      </trkpt>
      <trkpt lat="47.19757" lon="-1.85791">
        <ele>-5</ele>
        <time>2014-04-08T13:09:44Z</time>
      </trkpt>
      <trkpt lat="47.19779" lon="-1.85822">
        <ele>-4</ele>
        <time>2014-04-08T13:09:48Z</time>
      </trkpt>
      <trkpt lat="47.19802" lon="-1.85859">
        <ele>-4</ele>
        <time>2014-04-08T13:09:52Z</time>
      </trkpt>
      <trkpt lat="47.19825" lon="-1.85892">
        <ele>-4</ele>
        <time>2014-04-08T13:09:56Z</time>
      </trkpt>
      <trkpt lat="47.19844" lon="-1.85925">
        <ele>-4</ele>
        <time>2014-04-08T13:10:00Z</time>
      </trkpt>
      <trkpt lat="47.19862" lon="-1.85955">
        <ele>-2</ele>
        <time>2014-04-08T13:10:04Z</time>
      </trkpt>
      <trkpt lat="47.19882" lon="-1.85986">
        <ele>-3</ele>
        <time>2014-04-08T13:10:08Z</time>
      </trkpt>
      <trkpt lat="47.19905" lon="-1.86028">
        <ele>-3</ele>
        <time>2014-04-08T13:10:13Z</time>
      </trkpt>
      <trkpt lat="47.19918" lon="-1.86066">
        <ele>-5</ele>
        <time>2014-04-08T13:10:17Z</time>
      </trkpt>
      <trkpt lat="47.19931" lon="-1.86098">
        <ele>-5</ele>
        <time>2014-04-08T13:10:21Z</time>
      </trkpt>
      <trkpt lat="47.19941" lon="-1.8613">
        <ele>-3</ele>
        <time>2014-04-08T13:10:25Z</time>
      </trkpt>
      <trkpt lat="47.19948" lon="-1.86165">
        <ele>7.4</ele>
        <time>2014-04-08T13:10:29Z</time>
      </trkpt>
      <trkpt lat="47.19951" lon="-1.86182">
        <ele>-1</ele>
        <time>2014-04-08T13:10:31Z</time>
      </trkpt>
      <trkpt lat="47.1996" lon="-1.86237">
        <ele>-1</ele>
        <time>2014-04-08T13:10:37Z</time>
      </trkpt>
      <trkpt lat="47.19966" lon="-1.86291">
        <ele>-1</ele>
        <time>2014-04-08T13:10:42Z</time>
      </trkpt>
      <trkpt lat="47.19967" lon="-1.86315">
        <ele>-2</ele>
        <time>2014-04-08T13:10:44Z</time>
      </trkpt>
      <trkpt lat="47.19971" lon="-1.86386">
        <ele>-4</ele>
        <time>2014-04-08T13:10:49Z</time>
      </trkpt>
      <trkpt lat="47.19969" lon="-1.86426">
        <ele>-5</ele>
        <time>2014-04-08T13:10:53Z</time>
      </trkpt>
      <trkpt lat="47.19976" lon="-1.86487">
        <ele>-4</ele>
        <time>2014-04-08T13:10:58Z</time>
      </trkpt>
      <trkpt lat="47.19979" lon="-1.86507">
        <ele>-3</ele>
        <time>2014-04-08T13:11:00Z</time>
      </trkpt>
      <trkpt lat="47.1998" lon="-1.86573">
        <ele>-4</ele>
        <time>2014-04-08T13:11:06Z</time>
      </trkpt>
      <trkpt lat="47.19983" lon="-1.86594">
        <ele>-4</ele>
        <time>2014-04-08T13:11:08Z</time>
      </trkpt>
      <trkpt lat="47.19981" lon="-1.8666">
        <ele>-5</ele>
        <time>2014-04-08T13:11:15Z</time>
      </trkpt>
      <trkpt lat="47.19981" lon="-1.86696">
        <ele>-2</ele>
        <time>2014-04-08T13:11:19Z</time>
      </trkpt>
      <trkpt lat="47.19984" lon="-1.86739">
        <ele>-2</ele>
        <time>2014-04-08T13:11:22Z</time>
      </trkpt>
      <trkpt lat="47.19993" lon="-1.86771">
        <ele>-5</ele>
        <time>2014-04-08T13:11:26Z</time>
      </trkpt>
      <trkpt lat="47.20001" lon="-1.86805">
        <ele>-3</ele>
        <time>2014-04-08T13:11:30Z</time>
      </trkpt>
      <trkpt lat="47.2001" lon="-1.86837">
        <ele>-4</ele>
        <time>2014-04-08T13:11:33Z</time>
      </trkpt>
      <trkpt lat="47.20023" lon="-1.8689">
        <ele>-6</ele>
        <time>2014-04-08T13:11:39Z</time>
      </trkpt>
      <trkpt lat="47.20029" lon="-1.86912">
        <ele>-6</ele>
        <time>2014-04-08T13:11:42Z</time>
      </trkpt>
      <trkpt lat="47.20032" lon="-1.86932">
        <ele>-5</ele>
        <time>2014-04-08T13:11:44Z</time>
      </trkpt>
      <trkpt lat="47.20045" lon="-1.86988">
        <ele>-1</ele>
        <time>2014-04-08T13:11:51Z</time>
      </trkpt>
      <trkpt lat="47.20043" lon="-1.87009">
        <ele>11</ele>
        <time>2014-04-08T13:11:54Z</time>
      </trkpt>
      <trkpt lat="47.20044" lon="-1.87042">
        <ele>11.5</ele>
        <time>2014-04-08T13:11:58Z</time>
      </trkpt>
      <trkpt lat="47.20043" lon="-1.87081">
        <ele>4</ele>
        <time>2014-04-08T13:12:03Z</time>
      </trkpt>
      <trkpt lat="47.20044" lon="-1.87111">
        <ele>3</ele>
        <time>2014-04-08T13:12:06Z</time>
      </trkpt>
      <trkpt lat="47.20045" lon="-1.87145">
        <ele>4</ele>
        <time>2014-04-08T13:12:10Z</time>
      </trkpt>
      <trkpt lat="47.20046" lon="-1.87165">
        <ele>4</ele>
        <time>2014-04-08T13:12:12Z</time>
      </trkpt>
      <trkpt lat="47.2005" lon="-1.87214">
        <ele>3</ele>
        <time>2014-04-08T13:12:17Z</time>
      </trkpt>
      <trkpt lat="47.2005" lon="-1.87262">
        <ele>3</ele>
        <time>2014-04-08T13:12:22Z</time>
      </trkpt>
      <trkpt lat="47.20047" lon="-1.87293">
        <ele>3</ele>
        <time>2014-04-08T13:12:26Z</time>
      </trkpt>
      <trkpt lat="47.20049" lon="-1.87315">
        <ele>4</ele>
        <time>2014-04-08T13:12:28Z</time>
      </trkpt>
      <trkpt lat="47.20051" lon="-1.87372">
        <ele>4</ele>
        <time>2014-04-08T13:12:34Z</time>
      </trkpt>
      <trkpt lat="47.20048" lon="-1.87424">
        <ele>7</ele>
        <time>2014-04-08T13:12:39Z</time>
      </trkpt>
      <trkpt lat="47.20041" lon="-1.87463">
        <ele>7</ele>
        <time>2014-04-08T13:12:43Z</time>
      </trkpt>
      <trkpt lat="47.20037" lon="-1.87502">
        <ele>8</ele>
        <time>2014-04-08T13:12:47Z</time>
      </trkpt>
      <trkpt lat="47.20035" lon="-1.87513">
        <ele>8</ele>
        <time>2014-04-08T13:12:48Z</time>
      </trkpt>
      <trkpt lat="47.20029" lon="-1.87551">
        <ele>5</ele>
        <time>2014-04-08T13:12:52Z</time>
      </trkpt>
      <trkpt lat="47.20016" lon="-1.87619">
        <ele>6</ele>
        <time>2014-04-08T13:12:59Z</time>
      </trkpt>
      <trkpt lat="47.2001" lon="-1.87659">
        <ele>8</ele>
        <time>2014-04-08T13:13:03Z</time>
      </trkpt>
      <trkpt lat="47.20005" lon="-1.87694">
        <ele>8</ele>
        <time>2014-04-08T13:13:07Z</time>
      </trkpt>
      <trkpt lat="47.19993" lon="-1.87729">
        <ele>7</ele>
        <time>2014-04-08T13:13:11Z</time>
      </trkpt>
      <trkpt lat="47.19971" lon="-1.87766">
        <ele>4</ele>
        <time>2014-04-08T13:13:15Z</time>
      </trkpt>
      <trkpt lat="47.19952" lon="-1.87789">
        <ele>4</ele>
        <time>2014-04-08T13:13:18Z</time>
      </trkpt>
      <trkpt lat="47.19915" lon="-1.87839">
        <ele>3</ele>
        <time>2014-04-08T13:13:24Z</time>
      </trkpt>
      <trkpt lat="47.19906" lon="-1.87872">
        <ele>3</ele>
        <time>2014-04-08T13:13:27Z</time>
      </trkpt>
      <trkpt lat="47.19898" lon="-1.87914">
        <ele>4</ele>
        <time>2014-04-08T13:13:31Z</time>
      </trkpt>
      <trkpt lat="47.1989" lon="-1.87975">
        <ele>1</ele>
        <time>2014-04-08T13:13:36Z</time>
      </trkpt>
      <trkpt lat="47.1989" lon="-1.87985">
        <ele>4.1</ele>
        <time>2014-04-08T13:13:37Z</time>
      </trkpt>
      <trkpt lat="47.19876" lon="-1.88083">
        <ele>-2</ele>
        <time>2014-04-08T13:13:44Z</time>
      </trkpt>
      <trkpt lat="47.19872" lon="-1.88135">
        <ele>-3</ele>
        <time>2014-04-08T13:13:48Z</time>
      </trkpt>
      <trkpt lat="47.1987" lon="-1.88149">
        <ele>-3</ele>
        <time>2014-04-08T13:13:49Z</time>
      </trkpt>
      <trkpt lat="47.19864" lon="-1.8822">
        <ele>-5</ele>
        <time>2014-04-08T13:13:55Z</time>
      </trkpt>
      <trkpt lat="47.19866" lon="-1.88239">
        <ele>-3</ele>
        <time>2014-04-08T13:13:57Z</time>
      </trkpt>
      <trkpt lat="47.19872" lon="-1.88301">
        <ele>-5</ele>
        <time>2014-04-08T13:14:03Z</time>
      </trkpt>
      <trkpt lat="47.19875" lon="-1.88327">
        <ele>-2</ele>
        <time>2014-04-08T13:14:05Z</time>
      </trkpt>
      <trkpt lat="47.19891" lon="-1.88385">
        <ele>-2</ele>
        <time>2014-04-08T13:14:11Z</time>
      </trkpt>
      <trkpt lat="47.19899" lon="-1.88437">
        <ele>-2</ele>
        <time>2014-04-08T13:14:15Z</time>
      </trkpt>
      <trkpt lat="47.19896" lon="-1.88457">
        <ele>-2</ele>
        <time>2014-04-08T13:14:17Z</time>
      </trkpt>
      <trkpt lat="47.19899" lon="-1.8853">
        <ele>-2</ele>
        <time>2014-04-08T13:14:24Z</time>
      </trkpt>
      <trkpt lat="47.19899" lon="-1.88535">
        <ele>4</ele>
        <time>2014-04-08T13:14:25Z</time>
      </trkpt>
      <trkpt lat="47.19908" lon="-1.88611">
        <ele>-2</ele>
        <time>2014-04-08T13:14:32Z</time>
      </trkpt>
      <trkpt lat="47.19913" lon="-1.88643">
        <ele>-1</ele>
        <time>2014-04-08T13:14:35Z</time>
      </trkpt>
      <trkpt lat="47.19918" lon="-1.88675">
        <ele>-2</ele>
        <time>2014-04-08T13:14:38Z</time>
      </trkpt>
      <trkpt lat="47.1992" lon="-1.88708">
        <ele>-2</ele>
        <time>2014-04-08T13:14:41Z</time>
      </trkpt>
      <trkpt lat="47.19924" lon="-1.88778">
        <ele>-4</ele>
        <time>2014-04-08T13:14:48Z</time>
      </trkpt>
      <trkpt lat="47.19927" lon="-1.88811">
        <ele>-5</ele>
        <time>2014-04-08T13:14:51Z</time>
      </trkpt>
      <trkpt lat="47.19929" lon="-1.88832">
        <ele>-4</ele>
        <time>2014-04-08T13:14:53Z</time>
      </trkpt>
      <trkpt lat="47.19938" lon="-1.889">
        <ele>-3</ele>
        <time>2014-04-08T13:15:00Z</time>
      </trkpt>
      <trkpt lat="47.19939" lon="-1.88937">
        <ele>-5</ele>
        <time>2014-04-08T13:15:03Z</time>
      </trkpt>
      <trkpt lat="47.19928" lon="-1.88969">
        <ele>-6</ele>
        <time>2014-04-08T13:15:07Z</time>
      </trkpt>
      <trkpt lat="47.19902" lon="-1.88986">
        <ele>-6</ele>
        <time>2014-04-08T13:15:11Z</time>
      </trkpt>
      <trkpt lat="47.19869" lon="-1.89009">
        <ele>-7</ele>
        <time>2014-04-08T13:15:16Z</time>
      </trkpt>
      <trkpt lat="47.19847" lon="-1.89023">
        <ele>-9</ele>
        <time>2014-04-08T13:15:19Z</time>
      </trkpt>
      <trkpt lat="47.19806" lon="-1.89053">
        <ele>-7</ele>
        <time>2014-04-08T13:15:25Z</time>
      </trkpt>
      <trkpt lat="47.19793" lon="-1.89063">
        <ele>-6</ele>
        <time>2014-04-08T13:15:27Z</time>
      </trkpt>
      <trkpt lat="47.19767" lon="-1.89076">
        <ele>3.8</ele>
        <time>2014-04-08T13:15:31Z</time>
      </trkpt>
      <trkpt lat="47.19735" lon="-1.89081">
        <ele>-2</ele>
        <time>2014-04-08T13:15:36Z</time>
      </trkpt>
      <trkpt lat="47.197" lon="-1.89081">
        <ele>-1</ele>
        <time>2014-04-08T13:15:41Z</time>
      </trkpt>
      <trkpt lat="47.19665" lon="-1.89081">
        <ele>4.1</ele>
        <time>2014-04-08T13:15:45Z</time>
      </trkpt>
      <trkpt lat="47.19645" lon="-1.89082">
        <ele>-1</ele>
        <time>2014-04-08T13:15:48Z</time>
      </trkpt>
      <trkpt lat="47.1962" lon="-1.89086">
        <ele>-1</ele>
        <time>2014-04-08T13:15:51Z</time>
      </trkpt>
      <trkpt lat="47.19576" lon="-1.89085">
        <ele>-1</ele>
        <time>2014-04-08T13:15:57Z</time>
      </trkpt>
      <trkpt lat="47.19549" lon="-1.8909">
        <ele>-2</ele>
        <time>2014-04-08T13:16:00Z</time>
      </trkpt>
      <trkpt lat="47.19519" lon="-1.89097">
        <ele>-3</ele>
        <time>2014-04-08T13:16:04Z</time>
      </trkpt>
      <trkpt lat="47.19486" lon="-1.89097">
        <ele>-2</ele>
        <time>2014-04-08T13:16:08Z</time>
      </trkpt>
      <trkpt lat="47.19475" lon="-1.89101">
        <ele>-3</ele>
        <time>2014-04-08T13:16:10Z</time>
      </trkpt>
      <trkpt lat="47.19432" lon="-1.89104">
        <ele>-6</ele>
        <time>2014-04-08T13:16:16Z</time>
      </trkpt>
      <trkpt lat="47.19406" lon="-1.89113">
        <ele>-5</ele>
        <time>2014-04-08T13:16:20Z</time>
      </trkpt>
      <trkpt lat="47.19379" lon="-1.89129">
        <ele>-5</ele>
        <time>2014-04-08T13:16:24Z</time>
      </trkpt>
      <trkpt lat="47.1936" lon="-1.89161">
        <ele>-5</ele>
        <time>2014-04-08T13:16:28Z</time>
      </trkpt>
      <trkpt lat="47.1934" lon="-1.89207">
        <ele>-7</ele>
        <time>2014-04-08T13:16:33Z</time>
      </trkpt>
      <trkpt lat="47.19331" lon="-1.89236">
        <ele>-8</ele>
        <time>2014-04-08T13:16:36Z</time>
      </trkpt>
      <trkpt lat="47.19327" lon="-1.89254">
        <ele>-9</ele>
        <time>2014-04-08T13:16:38Z</time>
      </trkpt>
      <trkpt lat="47.19313" lon="-1.89306">
        <ele>-9</ele>
        <time>2014-04-08T13:16:44Z</time>
      </trkpt>
      <trkpt lat="47.19305" lon="-1.89349">
        <ele>-8</ele>
        <time>2014-04-08T13:16:49Z</time>
      </trkpt>
      <trkpt lat="47.193" lon="-1.89375">
        <ele>-8</ele>
        <time>2014-04-08T13:16:52Z</time>
      </trkpt>
      <trkpt lat="47.19294" lon="-1.89411">
        <ele>-3</ele>
        <time>2014-04-08T13:16:56Z</time>
      </trkpt>
      <trkpt lat="47.1929" lon="-1.89434">
        <ele>-1</ele>
        <time>2014-04-08T13:16:58Z</time>
      </trkpt>
      <trkpt lat="47.19279" lon="-1.8949">
        <ele>7.3</ele>
        <time>2014-04-08T13:17:04Z</time>
      </trkpt>
      <trkpt lat="47.19269" lon="-1.8953">
        <ele>7.1</ele>
        <time>2014-04-08T13:17:08Z</time>
      </trkpt>
      <trkpt lat="47.19254" lon="-1.89568">
        <ele>-1</ele>
        <time>2014-04-08T13:17:12Z</time>
      </trkpt>
      <trkpt lat="47.19248" lon="-1.89595">
        <ele>9</ele>
        <time>2014-04-08T13:17:15Z</time>
      </trkpt>
      <trkpt lat="47.19237" lon="-1.89632">
        <ele>9</ele>
        <time>2014-04-08T13:17:19Z</time>
      </trkpt>
      <trkpt lat="47.19232" lon="-1.8967">
        <ele>1</ele>
        <time>2014-04-08T13:17:23Z</time>
      </trkpt>
      <trkpt lat="47.19219" lon="-1.89728">
        <ele>10.1</ele>
        <time>2014-04-08T13:17:29Z</time>
      </trkpt>
      <trkpt lat="47.19214" lon="-1.89756">
        <ele>-2</ele>
        <time>2014-04-08T13:17:32Z</time>
      </trkpt>
      <trkpt lat="47.1921" lon="-1.89792">
        <ele>1</ele>
        <time>2014-04-08T13:17:36Z</time>
      </trkpt>
      <trkpt lat="47.19202" lon="-1.89826">
        <ele>1</ele>
        <time>2014-04-08T13:17:40Z</time>
      </trkpt>
      <trkpt lat="47.19195" lon="-1.8987">
        <ele>2</ele>
        <time>2014-04-08T13:17:45Z</time>
      </trkpt>
      <trkpt lat="47.1919" lon="-1.89904">
        <ele>2</ele>
        <time>2014-04-08T13:17:49Z</time>
      </trkpt>
      <trkpt lat="47.19187" lon="-1.8993">
        <ele>4</ele>
        <time>2014-04-08T13:17:52Z</time>
      </trkpt>
      <trkpt lat="47.19181" lon="-1.89979">
        <ele>3</ele>
        <time>2014-04-08T13:17:57Z</time>
      </trkpt>
      <trkpt lat="47.19175" lon="-1.90001">
        <ele>3</ele>
        <time>2014-04-08T13:18:00Z</time>
      </trkpt>
      <trkpt lat="47.19172" lon="-1.90038">
        <ele>12.8</ele>
        <time>2014-04-08T13:18:04Z</time>
      </trkpt>
      <trkpt lat="47.19164" lon="-1.90075">
        <ele>1</ele>
        <time>2014-04-08T13:18:08Z</time>
      </trkpt>
      <trkpt lat="47.19158" lon="-1.90109">
        <ele>3</ele>
        <time>2014-04-08T13:18:12Z</time>
      </trkpt>
      <trkpt lat="47.19147" lon="-1.90141">
        <ele>3</ele>
        <time>2014-04-08T13:18:16Z</time>
      </trkpt>
      <trkpt lat="47.19136" lon="-1.90168">
        <ele>5</ele>
        <time>2014-04-08T13:18:20Z</time>
      </trkpt>
      <trkpt lat="47.19121" lon="-1.90197">
        <ele>4</ele>
        <time>2014-04-08T13:18:24Z</time>
      </trkpt>
      <trkpt lat="47.19101" lon="-1.90231">
        <ele>6</ele>
        <time>2014-04-08T13:18:29Z</time>
      </trkpt>
      <trkpt lat="47.19087" lon="-1.9025">
        <ele>5</ele>
        <time>2014-04-08T13:18:32Z</time>
      </trkpt>
      <trkpt lat="47.19066" lon="-1.90277">
        <ele>4</ele>
        <time>2014-04-08T13:18:37Z</time>
      </trkpt>
      <trkpt lat="47.19058" lon="-1.90288">
        <ele>5</ele>
        <time>2014-04-08T13:18:39Z</time>
      </trkpt>
      <trkpt lat="47.19037" lon="-1.90322">
        <ele>5</ele>
        <time>2014-04-08T13:18:44Z</time>
      </trkpt>
      <trkpt lat="47.19011" lon="-1.90353">
        <ele>8</ele>
        <time>2014-04-08T13:18:50Z</time>
      </trkpt>
      <trkpt lat="47.18998" lon="-1.90376">
        <ele>8</ele>
        <time>2014-04-08T13:18:54Z</time>
      </trkpt>
      <trkpt lat="47.18983" lon="-1.90398">
        <ele>8</ele>
        <time>2014-04-08T13:18:58Z</time>
      </trkpt>
      <trkpt lat="47.18972" lon="-1.90416">
        <ele>7</ele>
        <time>2014-04-08T13:19:01Z</time>
      </trkpt>
      <trkpt lat="47.18966" lon="-1.90428">
        <ele>7</ele>
        <time>2014-04-08T13:19:03Z</time>
      </trkpt>
      <trkpt lat="47.1895" lon="-1.90459">
        <ele>8</ele>
        <time>2014-04-08T13:19:09Z</time>
      </trkpt>
      <trkpt lat="47.18939" lon="-1.90482">
        <ele>10</ele>
        <time>2014-04-08T13:19:13Z</time>
      </trkpt>
      <trkpt lat="47.1893" lon="-1.90498">
        <ele>11</ele>
        <time>2014-04-08T13:19:17Z</time>
      </trkpt>
      <trkpt lat="47.1892" lon="-1.90517">
        <ele>11</ele>
        <time>2014-04-08T13:19:21Z</time>
      </trkpt>
      <trkpt lat="47.18913" lon="-1.90539">
        <ele>14</ele>
        <time>2014-04-08T13:19:26Z</time>
      </trkpt>
      <trkpt lat="47.18904" lon="-1.90552">
        <ele>17</ele>
        <time>2014-04-08T13:19:29Z</time>
      </trkpt>
      <trkpt lat="47.18893" lon="-1.90569">
        <ele>20</ele>
        <time>2014-04-08T13:19:33Z</time>
      </trkpt>
      <trkpt lat="47.18886" lon="-1.9059">
        <ele>20</ele>
        <time>2014-04-08T13:19:38Z</time>
      </trkpt>
      <trkpt lat="47.1888" lon="-1.90603">
        <ele>19</ele>
        <time>2014-04-08T13:19:41Z</time>
      </trkpt>
      <trkpt lat="47.18873" lon="-1.90619">
        <ele>18</ele>
        <time>2014-04-08T13:19:44Z</time>
      </trkpt>
      <trkpt lat="47.18866" lon="-1.90641">
        <ele>17</ele>
        <time>2014-04-08T13:19:49Z</time>
      </trkpt>
      <trkpt lat="47.18861" lon="-1.90663">
        <ele>17</ele>
        <time>2014-04-08T13:19:53Z</time>
      </trkpt>
      <trkpt lat="47.18857" lon="-1.90684">
        <ele>17</ele>
        <time>2014-04-08T13:19:57Z</time>
      </trkpt>
      <trkpt lat="47.1885" lon="-1.90709">
        <ele>18</ele>
        <time>2014-04-08T13:20:01Z</time>
      </trkpt>
      <trkpt lat="47.18848" lon="-1.90721">
        <ele>18</ele>
        <time>2014-04-08T13:20:03Z</time>
      </trkpt>
      <trkpt lat="47.18839" lon="-1.90761">
        <ele>20</ele>
        <time>2014-04-08T13:20:09Z</time>
      </trkpt>
      <trkpt lat="47.18834" lon="-1.90788">
        <ele>21</ele>
        <time>2014-04-08T13:20:13Z</time>
      </trkpt>
      <trkpt lat="47.18828" lon="-1.90816">
        <ele>21</ele>
        <time>2014-04-08T13:20:17Z</time>
      </trkpt>
      <trkpt lat="47.18823" lon="-1.90845">
        <ele>22</ele>
        <time>2014-04-08T13:20:21Z</time>
      </trkpt>
      <trkpt lat="47.18817" lon="-1.90877">
        <ele>24</ele>
        <time>2014-04-08T13:20:26Z</time>
      </trkpt>
      <trkpt lat="47.18806" lon="-1.90906">
        <ele>24</ele>
        <time>2014-04-08T13:20:30Z</time>
      </trkpt>
      <trkpt lat="47.18797" lon="-1.90926">
        <ele>21</ele>
        <time>2014-04-08T13:20:33Z</time>
      </trkpt>
      <trkpt lat="47.18779" lon="-1.90963">
        <ele>22</ele>
        <time>2014-04-08T13:20:38Z</time>
      </trkpt>
      <trkpt lat="47.18762" lon="-1.90996">
        <ele>23</ele>
        <time>2014-04-08T13:20:42Z</time>
      </trkpt>
      <trkpt lat="47.1875" lon="-1.91019">
        <ele>23</ele>
        <time>2014-04-08T13:20:45Z</time>
      </trkpt>
      <trkpt lat="47.18726" lon="-1.91054">
        <ele>21</ele>
        <time>2014-04-08T13:20:50Z</time>
      </trkpt>
      <trkpt lat="47.18716" lon="-1.91069">
        <ele>20</ele>
        <time>2014-04-08T13:20:52Z</time>
      </trkpt>
      <trkpt lat="47.18692" lon="-1.91115">
        <ele>19</ele>
        <time>2014-04-08T13:20:58Z</time>
      </trkpt>
      <trkpt lat="47.18677" lon="-1.91139">
        <ele>19</ele>
        <time>2014-04-08T13:21:02Z</time>
      </trkpt>
      <trkpt lat="47.18657" lon="-1.91164">
        <ele>18</ele>
        <time>2014-04-08T13:21:06Z</time>
      </trkpt>
      <trkpt lat="47.18641" lon="-1.91183">
        <ele>18</ele>
        <time>2014-04-08T13:21:09Z</time>
      </trkpt>
      <trkpt lat="47.18614" lon="-1.9122">
        <ele>19</ele>
        <time>2014-04-08T13:21:14Z</time>
      </trkpt>
      <trkpt lat="47.18583" lon="-1.91258">
        <ele>15</ele>
        <time>2014-04-08T13:21:19Z</time>
      </trkpt>
      <trkpt lat="47.18561" lon="-1.91286">
        <ele>14</ele>
        <time>2014-04-08T13:21:22Z</time>
      </trkpt>
      <trkpt lat="47.18538" lon="-1.91318">
        <ele>11</ele>
        <time>2014-04-08T13:21:25Z</time>
      </trkpt>
      <trkpt lat="47.18517" lon="-1.91348">
        <ele>10</ele>
        <time>2014-04-08T13:21:28Z</time>
      </trkpt>
      <trkpt lat="47.18474" lon="-1.91415">
        <ele>9</ele>
        <time>2014-04-08T13:21:34Z</time>
      </trkpt>
      <trkpt lat="47.18437" lon="-1.91468">
        <ele>7</ele>
        <time>2014-04-08T13:21:39Z</time>
      </trkpt>
      <trkpt lat="47.1842" lon="-1.91504">
        <ele>8</ele>
        <time>2014-04-08T13:21:42Z</time>
      </trkpt>
      <trkpt lat="47.18404" lon="-1.91553">
        <ele>8</ele>
        <time>2014-04-08T13:21:46Z</time>
      </trkpt>
      <trkpt lat="47.18393" lon="-1.91579">
        <ele>10</ele>
        <time>2014-04-08T13:21:49Z</time>
      </trkpt>
      <trkpt lat="47.18385" lon="-1.91616">
        <ele>18</ele>
        <time>2014-04-08T13:21:54Z</time>
      </trkpt>
      <trkpt lat="47.18379" lon="-1.91642">
        <ele>20</ele>
        <time>2014-04-08T13:21:58Z</time>
      </trkpt>
      <trkpt lat="47.18365" lon="-1.91683">
        <ele>18</ele>
        <time>2014-04-08T13:22:03Z</time>
      </trkpt>
      <trkpt lat="47.18358" lon="-1.91711">
        <ele>19</ele>
        <time>2014-04-08T13:22:07Z</time>
      </trkpt>
      <trkpt lat="47.18358" lon="-1.91727">
        <ele>21</ele>
        <time>2014-04-08T13:22:10Z</time>
      </trkpt>
      <trkpt lat="47.18354" lon="-1.91748">
        <ele>21</ele>
        <time>2014-04-08T13:22:13Z</time>
      </trkpt>
      <trkpt lat="47.18349" lon="-1.9178">
        <ele>23</ele>
        <time>2014-04-08T13:22:18Z</time>
      </trkpt>
      <trkpt lat="47.18348" lon="-1.91797">
        <ele>23</ele>
        <time>2014-04-08T13:22:21Z</time>
      </trkpt>
      <trkpt lat="47.18344" lon="-1.91824">
        <ele>22</ele>
        <time>2014-04-08T13:22:26Z</time>
      </trkpt>
      <trkpt lat="47.18338" lon="-1.91846">
        <ele>19</ele>
        <time>2014-04-08T13:22:30Z</time>
      </trkpt>
      <trkpt lat="47.18336" lon="-1.91873">
        <ele>22</ele>
        <time>2014-04-08T13:22:35Z</time>
      </trkpt>
      <trkpt lat="47.18336" lon="-1.91884">
        <ele>23</ele>
        <time>2014-04-08T13:22:37Z</time>
      </trkpt>
      <trkpt lat="47.18333" lon="-1.91901">
        <ele>24</ele>
        <time>2014-04-08T13:22:40Z</time>
      </trkpt>
      <trkpt lat="47.18326" lon="-1.9194">
        <ele>25</ele>
        <time>2014-04-08T13:22:49Z</time>
      </trkpt>
      <trkpt lat="47.18323" lon="-1.91953">
        <ele>28</ele>
        <time>2014-04-08T13:22:52Z</time>
      </trkpt>
      <trkpt lat="47.18315" lon="-1.91982">
        <ele>29</ele>
        <time>2014-04-08T13:22:57Z</time>
      </trkpt>
      <trkpt lat="47.18312" lon="-1.92001">
        <ele>30</ele>
        <time>2014-04-08T13:23:00Z</time>
      </trkpt>
      <trkpt lat="47.1831" lon="-1.92019">
        <ele>32</ele>
        <time>2014-04-08T13:23:03Z</time>
      </trkpt>
      <trkpt lat="47.18305" lon="-1.92047">
        <ele>30</ele>
        <time>2014-04-08T13:23:07Z</time>
      </trkpt>
      <trkpt lat="47.18297" lon="-1.92079">
        <ele>29</ele>
        <time>2014-04-08T13:23:12Z</time>
      </trkpt>
      <trkpt lat="47.18291" lon="-1.92104">
        <ele>28</ele>
        <time>2014-04-08T13:23:16Z</time>
      </trkpt>
      <trkpt lat="47.18286" lon="-1.9213">
        <ele>30</ele>
        <time>2014-04-08T13:23:20Z</time>
      </trkpt>
      <trkpt lat="47.18283" lon="-1.92154">
        <ele>32</ele>
        <time>2014-04-08T13:23:24Z</time>
      </trkpt>
      <trkpt lat="47.18278" lon="-1.92182">
        <ele>31</ele>
        <time>2014-04-08T13:23:28Z</time>
      </trkpt>
      <trkpt lat="47.18273" lon="-1.92209">
        <ele>34</ele>
        <time>2014-04-08T13:23:32Z</time>
      </trkpt>
      <trkpt lat="47.18265" lon="-1.9224">
        <ele>34</ele>
        <time>2014-04-08T13:23:36Z</time>
      </trkpt>
      <trkpt lat="47.18258" lon="-1.92269">
        <ele>36</ele>
        <time>2014-04-08T13:23:40Z</time>
      </trkpt>
      <trkpt lat="47.1825" lon="-1.92301">
        <ele>34</ele>
        <time>2014-04-08T13:23:44Z</time>
      </trkpt>
      <trkpt lat="47.18247" lon="-1.92332">
        <ele>38</ele>
        <time>2014-04-08T13:23:48Z</time>
      </trkpt>
      <trkpt lat="47.18238" lon="-1.92363">
        <ele>39</ele>
        <time>2014-04-08T13:23:52Z</time>
      </trkpt>
      <trkpt lat="47.1823" lon="-1.92395">
        <ele>37</ele>
        <time>2014-04-08T13:23:56Z</time>
      </trkpt>
      <trkpt lat="47.18227" lon="-1.92412">
        <ele>38</ele>
        <time>2014-04-08T13:23:58Z</time>
      </trkpt>
      <trkpt lat="47.18212" lon="-1.92459">
        <ele>37</ele>
        <time>2014-04-08T13:24:04Z</time>
      </trkpt>
      <trkpt lat="47.18202" lon="-1.92491">
        <ele>36</ele>
        <time>2014-04-08T13:24:08Z</time>
      </trkpt>
      <trkpt lat="47.18184" lon="-1.92527">
        <ele>36</ele>
        <time>2014-04-08T13:24:13Z</time>
      </trkpt>
      <trkpt lat="47.18172" lon="-1.92547">
        <ele>36</ele>
        <time>2014-04-08T13:24:16Z</time>
      </trkpt>
      <trkpt lat="47.18158" lon="-1.92575">
        <ele>37</ele>
        <time>2014-04-08T13:24:20Z</time>
      </trkpt>
      <trkpt lat="47.18143" lon="-1.92604">
        <ele>35</ele>
        <time>2014-04-08T13:24:24Z</time>
      </trkpt>
      <trkpt lat="47.18128" lon="-1.9263">
        <ele>34</ele>
        <time>2014-04-08T13:24:28Z</time>
      </trkpt>
      <trkpt lat="47.18112" lon="-1.92656">
        <ele>33</ele>
        <time>2014-04-08T13:24:32Z</time>
      </trkpt>
      <trkpt lat="47.18095" lon="-1.92681">
        <ele>34</ele>
        <time>2014-04-08T13:24:36Z</time>
      </trkpt>
      <trkpt lat="47.18072" lon="-1.92701">
        <ele>34</ele>
        <time>2014-04-08T13:24:40Z</time>
      </trkpt>
      <trkpt lat="47.18053" lon="-1.92721">
        <ele>36</ele>
        <time>2014-04-08T13:24:44Z</time>
      </trkpt>
      <trkpt lat="47.18033" lon="-1.92739">
        <ele>39</ele>
        <time>2014-04-08T13:24:48Z</time>
      </trkpt>
      <trkpt lat="47.1801" lon="-1.92756">
        <ele>40</ele>
        <time>2014-04-08T13:24:52Z</time>
      </trkpt>
      <trkpt lat="47.17985" lon="-1.92782">
        <ele>39</ele>
        <time>2014-04-08T13:24:57Z</time>
      </trkpt>
      <trkpt lat="47.17962" lon="-1.92801">
        <ele>39</ele>
        <time>2014-04-08T13:25:00Z</time>
      </trkpt>
      <trkpt lat="47.1794" lon="-1.92819">
        <ele>39</ele>
        <time>2014-04-08T13:25:04Z</time>
      </trkpt>
      <trkpt lat="47.17917" lon="-1.92841">
        <ele>37</ele>
        <time>2014-04-08T13:25:08Z</time>
      </trkpt>
      <trkpt lat="47.17888" lon="-1.92863">
        <ele>36</ele>
        <time>2014-04-08T13:25:13Z</time>
      </trkpt>
      <trkpt lat="47.17868" lon="-1.92883">
        <ele>35</ele>
        <time>2014-04-08T13:25:17Z</time>
      </trkpt>
      <trkpt lat="47.17855" lon="-1.92893">
        <ele>33</ele>
        <time>2014-04-08T13:25:19Z</time>
      </trkpt>
      <trkpt lat="47.17827" lon="-1.92922">
        <ele>34</ele>
        <time>2014-04-08T13:25:25Z</time>
      </trkpt>
      <trkpt lat="47.17812" lon="-1.92936">
        <ele>34</ele>
        <time>2014-04-08T13:25:28Z</time>
      </trkpt>
      <trkpt lat="47.17796" lon="-1.9295">
        <ele>36</ele>
        <time>2014-04-08T13:25:31Z</time>
      </trkpt>
      <trkpt lat="47.17766" lon="-1.92975">
        <ele>37</ele>
        <time>2014-04-08T13:25:36Z</time>
      </trkpt>
      <trkpt lat="47.17755" lon="-1.92987">
        <ele>37</ele>
        <time>2014-04-08T13:25:38Z</time>
      </trkpt>
      <trkpt lat="47.17718" lon="-1.93016">
        <ele>36</ele>
        <time>2014-04-08T13:25:44Z</time>
      </trkpt>
      <trkpt lat="47.17686" lon="-1.93048">
        <ele>37</ele>
        <time>2014-04-08T13:25:50Z</time>
      </trkpt>
      <trkpt lat="47.1767" lon="-1.93067">
        <ele>38</ele>
        <time>2014-04-08T13:25:53Z</time>
      </trkpt>
      <trkpt lat="47.17658" lon="-1.9308">
        <ele>38</ele>
        <time>2014-04-08T13:25:55Z</time>
      </trkpt>
      <trkpt lat="47.17627" lon="-1.93124">
        <ele>39</ele>
        <time>2014-04-08T13:26:01Z</time>
      </trkpt>
      <trkpt lat="47.17611" lon="-1.93156">
        <ele>36</ele>
        <time>2014-04-08T13:26:05Z</time>
      </trkpt>
      <trkpt lat="47.17594" lon="-1.93194">
        <ele>39</ele>
        <time>2014-04-08T13:26:10Z</time>
      </trkpt>
      <trkpt lat="47.17576" lon="-1.93217">
        <ele>38</ele>
        <time>2014-04-08T13:26:13Z</time>
      </trkpt>
      <trkpt lat="47.1756" lon="-1.9325">
        <ele>38</ele>
        <time>2014-04-08T13:26:17Z</time>
      </trkpt>
      <trkpt lat="47.17547" lon="-1.93277">
        <ele>37</ele>
        <time>2014-04-08T13:26:20Z</time>
      </trkpt>
      <trkpt lat="47.17524" lon="-1.9332">
        <ele>37</ele>
        <time>2014-04-08T13:26:25Z</time>
      </trkpt>
      <trkpt lat="47.17511" lon="-1.93343">
        <ele>39</ele>
        <time>2014-04-08T13:26:28Z</time>
      </trkpt>
      <trkpt lat="47.17486" lon="-1.93394">
        <ele>41</ele>
        <time>2014-04-08T13:26:34Z</time>
      </trkpt>
      <trkpt lat="47.17465" lon="-1.93421">
        <ele>37</ele>
        <time>2014-04-08T13:26:37Z</time>
      </trkpt>
      <trkpt lat="47.17459" lon="-1.93439">
        <ele>37</ele>
        <time>2014-04-08T13:26:39Z</time>
      </trkpt>
      <trkpt lat="47.1744" lon="-1.93482">
        <ele>38</ele>
        <time>2014-04-08T13:26:43Z</time>
      </trkpt>
      <trkpt lat="47.17406" lon="-1.93541">
        <ele>38</ele>
        <time>2014-04-08T13:26:49Z</time>
      </trkpt>
      <trkpt lat="47.1739" lon="-1.93561">
        <ele>37</ele>
        <time>2014-04-08T13:26:51Z</time>
      </trkpt>
      <trkpt lat="47.17362" lon="-1.93618">
        <ele>38</ele>
        <time>2014-04-08T13:26:57Z</time>
      </trkpt>
      <trkpt lat="47.17341" lon="-1.93656">
        <ele>35</ele>
        <time>2014-04-08T13:27:01Z</time>
      </trkpt>
      <trkpt lat="47.1732" lon="-1.93696">
        <ele>36</ele>
        <time>2014-04-08T13:27:05Z</time>
      </trkpt>
      <trkpt lat="47.17306" lon="-1.93726">
        <ele>35</ele>
        <time>2014-04-08T13:27:08Z</time>
      </trkpt>
      <trkpt lat="47.17271" lon="-1.93785">
        <ele>37</ele>
        <time>2014-04-08T13:27:14Z</time>
      </trkpt>
      <trkpt lat="47.17246" lon="-1.93824">
        <ele>38</ele>
        <time>2014-04-08T13:27:18Z</time>
      </trkpt>
      <trkpt lat="47.17229" lon="-1.93859">
        <ele>38</ele>
        <time>2014-04-08T13:27:22Z</time>
      </trkpt>
      <trkpt lat="47.17215" lon="-1.93884">
        <ele>37</ele>
        <time>2014-04-08T13:27:25Z</time>
      </trkpt>
      <trkpt lat="47.17196" lon="-1.93922">
        <ele>37</ele>
        <time>2014-04-08T13:27:29Z</time>
      </trkpt>
      <trkpt lat="47.17184" lon="-1.93941">
        <ele>38</ele>
        <time>2014-04-08T13:27:31Z</time>
      </trkpt>
      <trkpt lat="47.17162" lon="-1.93994">
        <ele>36</ele>
        <time>2014-04-08T13:27:37Z</time>
      </trkpt>
      <trkpt lat="47.17146" lon="-1.94023">
        <ele>36</ele>
        <time>2014-04-08T13:27:40Z</time>
      </trkpt>
      <trkpt lat="47.17118" lon="-1.94071">
        <ele>37</ele>
        <time>2014-04-08T13:27:46Z</time>
      </trkpt>
      <trkpt lat="47.17107" lon="-1.94098">
        <ele>38</ele>
        <time>2014-04-08T13:27:49Z</time>
      </trkpt>
      <trkpt lat="47.17094" lon="-1.94123">
        <ele>38</ele>
        <time>2014-04-08T13:27:52Z</time>
      </trkpt>
      <trkpt lat="47.17074" lon="-1.94165">
        <ele>38</ele>
        <time>2014-04-08T13:27:57Z</time>
      </trkpt>
      <trkpt lat="47.17056" lon="-1.94195">
        <ele>37</ele>
        <time>2014-04-08T13:28:01Z</time>
      </trkpt>
      <trkpt lat="47.17037" lon="-1.94225">
        <ele>34</ele>
        <time>2014-04-08T13:28:05Z</time>
      </trkpt>
      <trkpt lat="47.17016" lon="-1.94252">
        <ele>34</ele>
        <time>2014-04-08T13:28:09Z</time>
      </trkpt>
      <trkpt lat="47.16999" lon="-1.94283">
        <ele>36</ele>
        <time>2014-04-08T13:28:13Z</time>
      </trkpt>
      <trkpt lat="47.16992" lon="-1.94295">
        <ele>37</ele>
        <time>2014-04-08T13:28:15Z</time>
      </trkpt>
      <trkpt lat="47.16975" lon="-1.94326">
        <ele>38</ele>
        <time>2014-04-08T13:28:19Z</time>
      </trkpt>
      <trkpt lat="47.16948" lon="-1.94375">
        <ele>39</ele>
        <time>2014-04-08T13:28:26Z</time>
      </trkpt>
      <trkpt lat="47.1693" lon="-1.94395">
        <ele>39</ele>
        <time>2014-04-08T13:28:29Z</time>
      </trkpt>
      <trkpt lat="47.16917" lon="-1.94422">
        <ele>41</ele>
        <time>2014-04-08T13:28:33Z</time>
      </trkpt>
      <trkpt lat="47.16899" lon="-1.94451">
        <ele>44</ele>
        <time>2014-04-08T13:28:37Z</time>
      </trkpt>
      <trkpt lat="47.1688" lon="-1.94478">
        <ele>42</ele>
        <time>2014-04-08T13:28:41Z</time>
      </trkpt>
      <trkpt lat="47.16861" lon="-1.94512">
        <ele>44</ele>
        <time>2014-04-08T13:28:46Z</time>
      </trkpt>
      <trkpt lat="47.16845" lon="-1.9454">
        <ele>45</ele>
        <time>2014-04-08T13:28:50Z</time>
      </trkpt>
      <trkpt lat="47.16833" lon="-1.94563">
        <ele>46</ele>
        <time>2014-04-08T13:28:53Z</time>
      </trkpt>
      <trkpt lat="47.16815" lon="-1.94591">
        <ele>46</ele>
        <time>2014-04-08T13:28:58Z</time>
      </trkpt>
      <trkpt lat="47.16796" lon="-1.94616">
        <ele>47</ele>
        <time>2014-04-08T13:29:01Z</time>
      </trkpt>
      <trkpt lat="47.16773" lon="-1.94651">
        <ele>48</ele>
        <time>2014-04-08T13:29:06Z</time>
      </trkpt>
      <trkpt lat="47.16756" lon="-1.94679">
        <ele>47</ele>
        <time>2014-04-08T13:29:10Z</time>
      </trkpt>
      <trkpt lat="47.16746" lon="-1.94694">
        <ele>46</ele>
        <time>2014-04-08T13:29:12Z</time>
      </trkpt>
      <trkpt lat="47.16719" lon="-1.94736">
        <ele>43</ele>
        <time>2014-04-08T13:29:18Z</time>
      </trkpt>
      <trkpt lat="47.16696" lon="-1.94769">
        <ele>43</ele>
        <time>2014-04-08T13:29:23Z</time>
      </trkpt>
      <trkpt lat="47.16691" lon="-1.94777">
        <ele>45</ele>
        <time>2014-04-08T13:29:24Z</time>
      </trkpt>
      <trkpt lat="47.16673" lon="-1.94805">
        <ele>45</ele>
        <time>2014-04-08T13:29:28Z</time>
      </trkpt>
      <trkpt lat="47.16644" lon="-1.94857">
        <ele>45</ele>
        <time>2014-04-08T13:29:35Z</time>
      </trkpt>
      <trkpt lat="47.16631" lon="-1.94881">
        <ele>47</ele>
        <time>2014-04-08T13:29:38Z</time>
      </trkpt>
      <trkpt lat="47.16602" lon="-1.94914">
        <ele>47</ele>
        <time>2014-04-08T13:29:42Z</time>
      </trkpt>
      <trkpt lat="47.16581" lon="-1.94955">
        <ele>46</ele>
        <time>2014-04-08T13:29:47Z</time>
      </trkpt>
      <trkpt lat="47.16575" lon="-1.94964">
        <ele>45</ele>
        <time>2014-04-08T13:29:48Z</time>
      </trkpt>
      <trkpt lat="47.16546" lon="-1.95026">
        <ele>49</ele>
        <time>2014-04-08T13:29:55Z</time>
      </trkpt>
      <trkpt lat="47.16524" lon="-1.95063">
        <ele>45</ele>
        <time>2014-04-08T13:29:59Z</time>
      </trkpt>
      <trkpt lat="47.16516" lon="-1.95082">
        <ele>46</ele>
        <time>2014-04-08T13:30:01Z</time>
      </trkpt>
      <trkpt lat="47.16487" lon="-1.95137">
        <ele>42</ele>
        <time>2014-04-08T13:30:07Z</time>
      </trkpt>
      <trkpt lat="47.16464" lon="-1.95184">
        <ele>41</ele>
        <time>2014-04-08T13:30:12Z</time>
      </trkpt>
      <trkpt lat="47.16452" lon="-1.95214">
        <ele>41</ele>
        <time>2014-04-08T13:30:15Z</time>
      </trkpt>
      <trkpt lat="47.16442" lon="-1.95234">
        <ele>41</ele>
        <time>2014-04-08T13:30:17Z</time>
      </trkpt>
      <trkpt lat="47.16411" lon="-1.95293">
        <ele>41</ele>
        <time>2014-04-08T13:30:23Z</time>
      </trkpt>
      <trkpt lat="47.16401" lon="-1.95312">
        <ele>40</ele>
        <time>2014-04-08T13:30:25Z</time>
      </trkpt>
      <trkpt lat="47.16371" lon="-1.95376">
        <ele>41</ele>
        <time>2014-04-08T13:30:31Z</time>
      </trkpt>
      <trkpt lat="47.16343" lon="-1.95428">
        <ele>39</ele>
        <time>2014-04-08T13:30:36Z</time>
      </trkpt>
      <trkpt lat="47.16322" lon="-1.95466">
        <ele>41</ele>
        <time>2014-04-08T13:30:40Z</time>
      </trkpt>
      <trkpt lat="47.16312" lon="-1.95486">
        <ele>40</ele>
        <time>2014-04-08T13:30:42Z</time>
      </trkpt>
      <trkpt lat="47.16291" lon="-1.95522">
        <ele>41</ele>
        <time>2014-04-08T13:30:46Z</time>
      </trkpt>
      <trkpt lat="47.16268" lon="-1.95573">
        <ele>40</ele>
        <time>2014-04-08T13:30:51Z</time>
      </trkpt>
      <trkpt lat="47.16253" lon="-1.956">
        <ele>41</ele>
        <time>2014-04-08T13:30:54Z</time>
      </trkpt>
      <trkpt lat="47.16235" lon="-1.95626">
        <ele>39</ele>
        <time>2014-04-08T13:30:57Z</time>
      </trkpt>
      <trkpt lat="47.16208" lon="-1.95686">
        <ele>39</ele>
        <time>2014-04-08T13:31:03Z</time>
      </trkpt>
      <trkpt lat="47.16178" lon="-1.95722">
        <ele>37</ele>
        <time>2014-04-08T13:31:07Z</time>
      </trkpt>
      <trkpt lat="47.16157" lon="-1.95771">
        <ele>38</ele>
        <time>2014-04-08T13:31:12Z</time>
      </trkpt>
      <trkpt lat="47.16144" lon="-1.95801">
        <ele>38</ele>
        <time>2014-04-08T13:31:15Z</time>
      </trkpt>
      <trkpt lat="47.16129" lon="-1.95828">
        <ele>40</ele>
        <time>2014-04-08T13:31:18Z</time>
      </trkpt>
      <trkpt lat="47.1612" lon="-1.95859">
        <ele>40</ele>
        <time>2014-04-08T13:31:21Z</time>
      </trkpt>
      <trkpt lat="47.16084" lon="-1.95931">
        <ele>38</ele>
        <time>2014-04-08T13:31:28Z</time>
      </trkpt>
      <trkpt lat="47.16055" lon="-1.95963">
        <ele>35</ele>
        <time>2014-04-08T13:31:31Z</time>
      </trkpt>
      <trkpt lat="47.16033" lon="-1.96014">
        <ele>35</ele>
        <time>2014-04-08T13:31:36Z</time>
      </trkpt>
      <trkpt lat="47.16013" lon="-1.96054">
        <ele>31</ele>
        <time>2014-04-08T13:31:40Z</time>
      </trkpt>
      <trkpt lat="47.15997" lon="-1.96084">
        <ele>30</ele>
        <time>2014-04-08T13:31:43Z</time>
      </trkpt>
      <trkpt lat="47.15985" lon="-1.96116">
        <ele>32</ele>
        <time>2014-04-08T13:31:46Z</time>
      </trkpt>
      <trkpt lat="47.15964" lon="-1.96196">
        <ele>33</ele>
        <time>2014-04-08T13:31:53Z</time>
      </trkpt>
      <trkpt lat="47.15952" lon="-1.96226">
        <ele>35</ele>
        <time>2014-04-08T13:31:56Z</time>
      </trkpt>
      <trkpt lat="47.15937" lon="-1.96263">
        <ele>35</ele>
        <time>2014-04-08T13:32:00Z</time>
      </trkpt>
      <trkpt lat="47.15923" lon="-1.96287">
        <ele>34</ele>
        <time>2014-04-08T13:32:03Z</time>
      </trkpt>
      <trkpt lat="47.15908" lon="-1.96318">
        <ele>33</ele>
        <time>2014-04-08T13:32:06Z</time>
      </trkpt>
      <trkpt lat="47.15876" lon="-1.96373">
        <ele>33</ele>
        <time>2014-04-08T13:32:12Z</time>
      </trkpt>
      <trkpt lat="47.15866" lon="-1.96389">
        <ele>31</ele>
        <time>2014-04-08T13:32:14Z</time>
      </trkpt>
      <trkpt lat="47.15841" lon="-1.96442">
        <ele>34</ele>
        <time>2014-04-08T13:32:20Z</time>
      </trkpt>
      <trkpt lat="47.15814" lon="-1.96483">
        <ele>34</ele>
        <time>2014-04-08T13:32:25Z</time>
      </trkpt>
      <trkpt lat="47.15794" lon="-1.96514">
        <ele>32</ele>
        <time>2014-04-08T13:32:29Z</time>
      </trkpt>
      <trkpt lat="47.15782" lon="-1.96539">
        <ele>34</ele>
        <time>2014-04-08T13:32:32Z</time>
      </trkpt>
      <trkpt lat="47.15758" lon="-1.9658">
        <ele>31</ele>
        <time>2014-04-08T13:32:37Z</time>
      </trkpt>
      <trkpt lat="47.15753" lon="-1.9659">
        <ele>30</ele>
        <time>2014-04-08T13:32:38Z</time>
      </trkpt>
      <trkpt lat="47.15725" lon="-1.9664">
        <ele>31</ele>
        <time>2014-04-08T13:32:44Z</time>
      </trkpt>
      <trkpt lat="47.15698" lon="-1.96683">
        <ele>33</ele>
        <time>2014-04-08T13:32:49Z</time>
      </trkpt>
      <trkpt lat="47.15686" lon="-1.96708">
        <ele>32</ele>
        <time>2014-04-08T13:32:52Z</time>
      </trkpt>
      <trkpt lat="47.15674" lon="-1.96746">
        <ele>32</ele>
        <time>2014-04-08T13:32:56Z</time>
      </trkpt>
      <trkpt lat="47.15655" lon="-1.96783">
        <ele>30</ele>
        <time>2014-04-08T13:33:00Z</time>
      </trkpt>
      <trkpt lat="47.1564" lon="-1.96826">
        <ele>28</ele>
        <time>2014-04-08T13:33:04Z</time>
      </trkpt>
      <trkpt lat="47.15635" lon="-1.96866">
        <ele>30</ele>
        <time>2014-04-08T13:33:08Z</time>
      </trkpt>
      <trkpt lat="47.15631" lon="-1.96886">
        <ele>29</ele>
        <time>2014-04-08T13:33:10Z</time>
      </trkpt>
      <trkpt lat="47.1562" lon="-1.96961">
        <ele>32</ele>
        <time>2014-04-08T13:33:17Z</time>
      </trkpt>
      <trkpt lat="47.15614" lon="-1.96993">
        <ele>32</ele>
        <time>2014-04-08T13:33:20Z</time>
      </trkpt>
      <trkpt lat="47.15608" lon="-1.9701">
        <ele>31</ele>
        <time>2014-04-08T13:33:22Z</time>
      </trkpt>
      <trkpt lat="47.15596" lon="-1.97082">
        <ele>31</ele>
        <time>2014-04-08T13:33:29Z</time>
      </trkpt>
      <trkpt lat="47.15587" lon="-1.97124">
        <ele>30</ele>
        <time>2014-04-08T13:33:33Z</time>
      </trkpt>
      <trkpt lat="47.15579" lon="-1.97154">
        <ele>29</ele>
        <time>2014-04-08T13:33:36Z</time>
      </trkpt>
      <trkpt lat="47.1557" lon="-1.97198">
        <ele>28</ele>
        <time>2014-04-08T13:33:40Z</time>
      </trkpt>
      <trkpt lat="47.1556" lon="-1.97238">
        <ele>27</ele>
        <time>2014-04-08T13:33:44Z</time>
      </trkpt>
      <trkpt lat="47.15555" lon="-1.9727">
        <ele>28</ele>
        <time>2014-04-08T13:33:47Z</time>
      </trkpt>
      <trkpt lat="47.15547" lon="-1.97326">
        <ele>26</ele>
        <time>2014-04-08T13:33:52Z</time>
      </trkpt>
      <trkpt lat="47.15534" lon="-1.97379">
        <ele>25</ele>
        <time>2014-04-08T13:33:57Z</time>
      </trkpt>
      <trkpt lat="47.1553" lon="-1.97411">
        <ele>26</ele>
        <time>2014-04-08T13:34:00Z</time>
      </trkpt>
      <trkpt lat="47.15527" lon="-1.97434">
        <ele>27</ele>
        <time>2014-04-08T13:34:02Z</time>
      </trkpt>
      <trkpt lat="47.15514" lon="-1.97495">
        <ele>30</ele>
        <time>2014-04-08T13:34:08Z</time>
      </trkpt>
      <trkpt lat="47.1551" lon="-1.97538">
        <ele>30</ele>
        <time>2014-04-08T13:34:12Z</time>
      </trkpt>
      <trkpt lat="47.15504" lon="-1.97568">
        <ele>30</ele>
        <time>2014-04-08T13:34:15Z</time>
      </trkpt>
      <trkpt lat="47.15494" lon="-1.97639">
        <ele>30</ele>
        <time>2014-04-08T13:34:21Z</time>
      </trkpt>
      <trkpt lat="47.15485" lon="-1.97681">
        <ele>30</ele>
        <time>2014-04-08T13:34:25Z</time>
      </trkpt>
      <trkpt lat="47.15479" lon="-1.97704">
        <ele>29</ele>
        <time>2014-04-08T13:34:27Z</time>
      </trkpt>
      <trkpt lat="47.15469" lon="-1.97762">
        <ele>30</ele>
        <time>2014-04-08T13:34:33Z</time>
      </trkpt>
      <trkpt lat="47.15463" lon="-1.97802">
        <ele>29</ele>
        <time>2014-04-08T13:34:38Z</time>
      </trkpt>
      <trkpt lat="47.15453" lon="-1.97836">
        <ele>28</ele>
        <time>2014-04-08T13:34:40Z</time>
      </trkpt>
      <trkpt lat="47.15445" lon="-1.97889">
        <ele>28</ele>
        <time>2014-04-08T13:34:45Z</time>
      </trkpt>
      <trkpt lat="47.15443" lon="-1.97932">
        <ele>32</ele>
        <time>2014-04-08T13:34:50Z</time>
      </trkpt>
      <trkpt lat="47.15444" lon="-1.97955">
        <ele>34</ele>
        <time>2014-04-08T13:34:51Z</time>
      </trkpt>
      <trkpt lat="47.15442" lon="-1.98">
        <ele>33</ele>
        <time>2014-04-08T13:34:55Z</time>
      </trkpt>
      <trkpt lat="47.15444" lon="-1.98057">
        <ele>30</ele>
        <time>2014-04-08T13:35:01Z</time>
      </trkpt>
      <trkpt lat="47.15444" lon="-1.98088">
        <ele>28</ele>
        <time>2014-04-08T13:35:04Z</time>
      </trkpt>
      <trkpt lat="47.15436" lon="-1.9814">
        <ele>24</ele>
        <time>2014-04-08T13:35:09Z</time>
      </trkpt>
      <trkpt lat="47.15434" lon="-1.98168">
        <ele>24</ele>
        <time>2014-04-08T13:35:12Z</time>
      </trkpt>
      <trkpt lat="47.15432" lon="-1.9821">
        <ele>22</ele>
        <time>2014-04-08T13:35:17Z</time>
      </trkpt>
      <trkpt lat="47.15431" lon="-1.98236">
        <ele>21</ele>
        <time>2014-04-08T13:35:20Z</time>
      </trkpt>
      <trkpt lat="47.15431" lon="-1.98268">
        <ele>19</ele>
        <time>2014-04-08T13:35:23Z</time>
      </trkpt>
      <trkpt lat="47.15423" lon="-1.98312">
        <ele>19</ele>
        <time>2014-04-08T13:35:28Z</time>
      </trkpt>
      <trkpt lat="47.15417" lon="-1.9834">
        <ele>19</ele>
        <time>2014-04-08T13:35:31Z</time>
      </trkpt>
      <trkpt lat="47.15399" lon="-1.98383">
        <ele>18</ele>
        <time>2014-04-08T13:35:37Z</time>
      </trkpt>
      <trkpt lat="47.15388" lon="-1.98395">
        <ele>19</ele>
        <time>2014-04-08T13:35:38Z</time>
      </trkpt>
      <trkpt lat="47.15341" lon="-1.98443">
        <ele>16</ele>
        <time>2014-04-08T13:35:46Z</time>
      </trkpt>
      <trkpt lat="47.15328" lon="-1.98456">
        <ele>16</ele>
        <time>2014-04-08T13:35:48Z</time>
      </trkpt>
      <trkpt lat="47.15297" lon="-1.98464">
        <ele>15</ele>
        <time>2014-04-08T13:35:52Z</time>
      </trkpt>
      <trkpt lat="47.15254" lon="-1.98484">
        <ele>15</ele>
        <time>2014-04-08T13:35:59Z</time>
      </trkpt>
      <trkpt lat="47.15237" lon="-1.98489">
        <ele>16</ele>
        <time>2014-04-08T13:36:02Z</time>
      </trkpt>
      <trkpt lat="47.1521" lon="-1.985">
        <ele>17</ele>
        <time>2014-04-08T13:36:07Z</time>
      </trkpt>
      <trkpt lat="47.15199" lon="-1.98506">
        <ele>17</ele>
        <time>2014-04-08T13:36:09Z</time>
      </trkpt>
      <trkpt lat="47.15184" lon="-1.9851">
        <ele>18</ele>
        <time>2014-04-08T13:36:12Z</time>
      </trkpt>
      <trkpt lat="47.15144" lon="-1.98521">
        <ele>19</ele>
        <time>2014-04-08T13:36:19Z</time>
      </trkpt>
      <trkpt lat="47.15137" lon="-1.98538">
        <ele>19</ele>
        <time>2014-04-08T13:36:21Z</time>
      </trkpt>
      <trkpt lat="47.15142" lon="-1.98571">
        <ele>21</ele>
        <time>2014-04-08T13:36:25Z</time>
      </trkpt>
      <trkpt lat="47.15142" lon="-1.98603">
        <ele>25</ele>
        <time>2014-04-08T13:36:30Z</time>
      </trkpt>
      <trkpt lat="47.15137" lon="-1.98618">
        <ele>27</ele>
        <time>2014-04-08T13:36:37Z</time>
      </trkpt>
      <trkpt lat="47.15144" lon="-1.9865">
        <ele>25</ele>
        <time>2014-04-08T13:36:48Z</time>
      </trkpt>
      <trkpt lat="47.1513" lon="-1.98662">
        <ele>24</ele>
        <time>2014-04-08T13:36:55Z</time>
      </trkpt>
      <trkpt lat="47.15116" lon="-1.9867">
        <ele>27</ele>
        <time>2014-04-08T13:36:58Z</time>
      </trkpt>
      <trkpt lat="47.15094" lon="-1.9869">
        <ele>26</ele>
        <time>2014-04-08T13:37:01Z</time>
      </trkpt>
      <trkpt lat="47.15065" lon="-1.9872">
        <ele>25</ele>
        <time>2014-04-08T13:37:06Z</time>
      </trkpt>
      <trkpt lat="47.15036" lon="-1.98748">
        <ele>24</ele>
        <time>2014-04-08T13:37:12Z</time>
      </trkpt>
      <trkpt lat="47.15018" lon="-1.98767">
        <ele>21</ele>
        <time>2014-04-08T13:37:14Z</time>
      </trkpt>
      <trkpt lat="47.15" lon="-1.98786">
        <ele>24</ele>
        <time>2014-04-08T13:37:17Z</time>
      </trkpt>
      <trkpt lat="47.14963" lon="-1.98831">
        <ele>25</ele>
        <time>2014-04-08T13:37:23Z</time>
      </trkpt>
      <trkpt lat="47.14956" lon="-1.98839">
        <ele>26</ele>
        <time>2014-04-08T13:37:24Z</time>
      </trkpt>
      <trkpt lat="47.14917" lon="-1.98892">
        <ele>22</ele>
        <time>2014-04-08T13:37:31Z</time>
      </trkpt>
      <trkpt lat="47.14898" lon="-1.9892">
        <ele>23</ele>
        <time>2014-04-08T13:37:33Z</time>
      </trkpt>
      <trkpt lat="47.14876" lon="-1.9895">
        <ele>19</ele>
        <time>2014-04-08T13:37:36Z</time>
      </trkpt>
      <trkpt lat="47.14824" lon="-1.99029">
        <ele>19</ele>
        <time>2014-04-08T13:37:44Z</time>
      </trkpt>
      <trkpt lat="47.14799" lon="-1.99062">
        <ele>19</ele>
        <time>2014-04-08T13:37:48Z</time>
      </trkpt>
      <trkpt lat="47.14788" lon="-1.99081">
        <ele>20</ele>
        <time>2014-04-08T13:37:50Z</time>
      </trkpt>
      <trkpt lat="47.14758" lon="-1.99125">
        <ele>18</ele>
        <time>2014-04-08T13:37:56Z</time>
      </trkpt>
      <trkpt lat="47.14734" lon="-1.9916">
        <ele>17</ele>
        <time>2014-04-08T13:38:00Z</time>
      </trkpt>
      <trkpt lat="47.14712" lon="-1.99197">
        <ele>18</ele>
        <time>2014-04-08T13:38:04Z</time>
      </trkpt>
      <trkpt lat="47.1469" lon="-1.99236">
        <ele>18</ele>
        <time>2014-04-08T13:38:07Z</time>
      </trkpt>
      <trkpt lat="47.14682" lon="-1.99258">
        <ele>17</ele>
        <time>2014-04-08T13:38:09Z</time>
      </trkpt>
      <trkpt lat="47.1465" lon="-1.9931">
        <ele>16</ele>
        <time>2014-04-08T13:38:15Z</time>
      </trkpt>
      <trkpt lat="47.14623" lon="-1.99352">
        <ele>16</ele>
        <time>2014-04-08T13:38:20Z</time>
      </trkpt>
      <trkpt lat="47.14608" lon="-1.99385">
        <ele>13</ele>
        <time>2014-04-08T13:38:23Z</time>
      </trkpt>
      <trkpt lat="47.14587" lon="-1.99421">
        <ele>11</ele>
        <time>2014-04-08T13:38:27Z</time>
      </trkpt>
      <trkpt lat="47.1457" lon="-1.99462">
        <ele>8</ele>
        <time>2014-04-08T13:38:31Z</time>
      </trkpt>
      <trkpt lat="47.14542" lon="-1.99505">
        <ele>8</ele>
        <time>2014-04-08T13:38:36Z</time>
      </trkpt>
      <trkpt lat="47.14527" lon="-1.99529">
        <ele>8</ele>
        <time>2014-04-08T13:38:39Z</time>
      </trkpt>
      <trkpt lat="47.14508" lon="-1.99567">
        <ele>11</ele>
        <time>2014-04-08T13:38:43Z</time>
      </trkpt>
      <trkpt lat="47.14498" lon="-1.99586">
        <ele>11</ele>
        <time>2014-04-08T13:38:45Z</time>
      </trkpt>
      <trkpt lat="47.14473" lon="-1.99647">
        <ele>12</ele>
        <time>2014-04-08T13:38:52Z</time>
      </trkpt>
      <trkpt lat="47.14443" lon="-1.9969">
        <ele>8</ele>
        <time>2014-04-08T13:38:57Z</time>
      </trkpt>
      <trkpt lat="47.14422" lon="-1.99724">
        <ele>8</ele>
        <time>2014-04-08T13:39:00Z</time>
      </trkpt>
      <trkpt lat="47.14399" lon="-1.99758">
        <ele>8</ele>
        <time>2014-04-08T13:39:04Z</time>
      </trkpt>
      <trkpt lat="47.14376" lon="-1.99791">
        <ele>11</ele>
        <time>2014-04-08T13:39:08Z</time>
      </trkpt>
      <trkpt lat="47.14359" lon="-1.99818">
        <ele>14</ele>
        <time>2014-04-08T13:39:11Z</time>
      </trkpt>
      <trkpt lat="47.14334" lon="-1.99862">
        <ele>14</ele>
        <time>2014-04-08T13:39:16Z</time>
      </trkpt>
      <trkpt lat="47.14326" lon="-1.99882">
        <ele>14</ele>
        <time>2014-04-08T13:39:19Z</time>
      </trkpt>
      <trkpt lat="47.14299" lon="-1.99928">
        <ele>15</ele>
        <time>2014-04-08T13:39:23Z</time>
      </trkpt>
      <trkpt lat="47.14263" lon="-1.99984">
        <ele>12</ele>
        <time>2014-04-08T13:39:29Z</time>
      </trkpt>
      <trkpt lat="47.1424" lon="-2.00021">
        <ele>11</ele>
        <time>2014-04-08T13:39:33Z</time>
      </trkpt>
      <trkpt lat="47.14223" lon="-2.00048">
        <ele>11</ele>
        <time>2014-04-08T13:39:36Z</time>
      </trkpt>
      <trkpt lat="47.142" lon="-2.00084">
        <ele>11</ele>
        <time>2014-04-08T13:39:40Z</time>
      </trkpt>
      <trkpt lat="47.14178" lon="-2.0012">
        <ele>10</ele>
        <time>2014-04-08T13:39:44Z</time>
      </trkpt>
      <trkpt lat="47.14152" lon="-2.00165">
        <ele>10</ele>
        <time>2014-04-08T13:39:50Z</time>
      </trkpt>
      <trkpt lat="47.14147" lon="-2.00175">
        <ele>10</ele>
        <time>2014-04-08T13:39:51Z</time>
      </trkpt>
      <trkpt lat="47.14114" lon="-2.0023">
        <ele>9</ele>
        <time>2014-04-08T13:39:56Z</time>
      </trkpt>
      <trkpt lat="47.14093" lon="-2.00269">
        <ele>8</ele>
        <time>2014-04-08T13:40:00Z</time>
      </trkpt>
      <trkpt lat="47.14073" lon="-2.00309">
        <ele>10</ele>
        <time>2014-04-08T13:40:05Z</time>
      </trkpt>
      <trkpt lat="47.14054" lon="-2.00346">
        <ele>13</ele>
        <time>2014-04-08T13:40:08Z</time>
      </trkpt>
      <trkpt lat="47.14036" lon="-2.00385">
        <ele>13</ele>
        <time>2014-04-08T13:40:12Z</time>
      </trkpt>
      <trkpt lat="47.14011" lon="-2.00432">
        <ele>14</ele>
        <time>2014-04-08T13:40:18Z</time>
      </trkpt>
      <trkpt lat="47.14" lon="-2.00462">
        <ele>14</ele>
        <time>2014-04-08T13:40:21Z</time>
      </trkpt>
      <trkpt lat="47.13983" lon="-2.005">
        <ele>13</ele>
        <time>2014-04-08T13:40:24Z</time>
      </trkpt>
      <trkpt lat="47.13967" lon="-2.00537">
        <ele>12</ele>
        <time>2014-04-08T13:40:28Z</time>
      </trkpt>
      <trkpt lat="47.13953" lon="-2.00574">
        <ele>14</ele>
        <time>2014-04-08T13:40:32Z</time>
      </trkpt>
      <trkpt lat="47.13935" lon="-2.0061">
        <ele>11</ele>
        <time>2014-04-08T13:40:36Z</time>
      </trkpt>
      <trkpt lat="47.13922" lon="-2.00636">
        <ele>12</ele>
        <time>2014-04-08T13:40:39Z</time>
      </trkpt>
      <trkpt lat="47.13898" lon="-2.00681">
        <ele>10</ele>
        <time>2014-04-08T13:40:44Z</time>
      </trkpt>
      <trkpt lat="47.13889" lon="-2.00697">
        <ele>10</ele>
        <time>2014-04-08T13:40:46Z</time>
      </trkpt>
      <trkpt lat="47.13862" lon="-2.00749">
        <ele>9</ele>
        <time>2014-04-08T13:40:52Z</time>
      </trkpt>
      <trkpt lat="47.1385" lon="-2.00775">
        <ele>8</ele>
        <time>2014-04-08T13:40:55Z</time>
      </trkpt>
      <trkpt lat="47.13833" lon="-2.00817">
        <ele>8</ele>
        <time>2014-04-08T13:41:00Z</time>
      </trkpt>
      <trkpt lat="47.13812" lon="-2.00862">
        <ele>13</ele>
        <time>2014-04-08T13:41:05Z</time>
      </trkpt>
      <trkpt lat="47.13796" lon="-2.00893">
        <ele>13</ele>
        <time>2014-04-08T13:41:09Z</time>
      </trkpt>
      <trkpt lat="47.13783" lon="-2.0092">
        <ele>12</ele>
        <time>2014-04-08T13:41:12Z</time>
      </trkpt>
      <trkpt lat="47.13765" lon="-2.00954">
        <ele>13</ele>
        <time>2014-04-08T13:41:16Z</time>
      </trkpt>
      <trkpt lat="47.13751" lon="-2.00988">
        <ele>11</ele>
        <time>2014-04-08T13:41:20Z</time>
      </trkpt>
      <trkpt lat="47.13738" lon="-2.01026">
        <ele>10</ele>
        <time>2014-04-08T13:41:24Z</time>
      </trkpt>
      <trkpt lat="47.13735" lon="-2.01046">
        <ele>9</ele>
        <time>2014-04-08T13:41:27Z</time>
      </trkpt>
      <trkpt lat="47.13718" lon="-2.01092">
        <ele>9</ele>
        <time>2014-04-08T13:41:31Z</time>
      </trkpt>
      <trkpt lat="47.137" lon="-2.01143">
        <ele>7</ele>
        <time>2014-04-08T13:41:36Z</time>
      </trkpt>
      <trkpt lat="47.13694" lon="-2.01162">
        <ele>6</ele>
        <time>2014-04-08T13:41:38Z</time>
      </trkpt>
      <trkpt lat="47.13674" lon="-2.01231">
        <ele>5</ele>
        <time>2014-04-08T13:41:45Z</time>
      </trkpt>
      <trkpt lat="47.13659" lon="-2.01276">
        <ele>5</ele>
        <time>2014-04-08T13:41:50Z</time>
      </trkpt>
      <trkpt lat="47.13646" lon="-2.01311">
        <ele>7</ele>
        <time>2014-04-08T13:41:54Z</time>
      </trkpt>
      <trkpt lat="47.13643" lon="-2.01322">
        <ele>7</ele>
        <time>2014-04-08T13:41:55Z</time>
      </trkpt>
      <trkpt lat="47.13628" lon="-2.01377">
        <ele>7</ele>
        <time>2014-04-08T13:42:01Z</time>
      </trkpt>
      <trkpt lat="47.13616" lon="-2.01415">
        <ele>9</ele>
        <time>2014-04-08T13:42:05Z</time>
      </trkpt>
      <trkpt lat="47.13604" lon="-2.01454">
        <ele>9</ele>
        <time>2014-04-08T13:42:09Z</time>
      </trkpt>
      <trkpt lat="47.1359" lon="-2.01493">
        <ele>6</ele>
        <time>2014-04-08T13:42:13Z</time>
      </trkpt>
      <trkpt lat="47.13582" lon="-2.01512">
        <ele>4</ele>
        <time>2014-04-08T13:42:15Z</time>
      </trkpt>
      <trkpt lat="47.13567" lon="-2.01578">
        <ele>4</ele>
        <time>2014-04-08T13:42:23Z</time>
      </trkpt>
      <trkpt lat="47.13562" lon="-2.01608">
        <ele>5</ele>
        <time>2014-04-08T13:42:25Z</time>
      </trkpt>
      <trkpt lat="47.13556" lon="-2.01647">
        <ele>4</ele>
        <time>2014-04-08T13:42:29Z</time>
      </trkpt>
      <trkpt lat="47.13552" lon="-2.01691">
        <ele>3</ele>
        <time>2014-04-08T13:42:33Z</time>
      </trkpt>
      <trkpt lat="47.13546" lon="-2.01736">
        <ele>5</ele>
        <time>2014-04-08T13:42:37Z</time>
      </trkpt>
      <trkpt lat="47.13543" lon="-2.01773">
        <ele>4</ele>
        <time>2014-04-08T13:42:40Z</time>
      </trkpt>
      <trkpt lat="47.13538" lon="-2.01804">
        <ele>4</ele>
        <time>2014-04-08T13:42:43Z</time>
      </trkpt>
      <trkpt lat="47.13532" lon="-2.01859">
        <ele>4</ele>
        <time>2014-04-08T13:42:48Z</time>
      </trkpt>
      <trkpt lat="47.13522" lon="-2.01929">
        <ele>2</ele>
        <time>2014-04-08T13:42:54Z</time>
      </trkpt>
      <trkpt lat="47.13519" lon="-2.01951">
        <ele>10</ele>
        <time>2014-04-08T13:42:56Z</time>
      </trkpt>
      <trkpt lat="47.13517" lon="-2.0202">
        <ele>5</ele>
        <time>2014-04-08T13:43:02Z</time>
      </trkpt>
      <trkpt lat="47.13511" lon="-2.02065">
        <ele>6</ele>
        <time>2014-04-08T13:43:07Z</time>
      </trkpt>
      <trkpt lat="47.13507" lon="-2.02109">
        <ele>7</ele>
        <time>2014-04-08T13:43:11Z</time>
      </trkpt>
      <trkpt lat="47.13502" lon="-2.02163">
        <ele>8</ele>
        <time>2014-04-08T13:43:15Z</time>
      </trkpt>
      <trkpt lat="47.13498" lon="-2.02198">
        <ele>9</ele>
        <time>2014-04-08T13:43:19Z</time>
      </trkpt>
      <trkpt lat="47.13491" lon="-2.02227">
        <ele>9</ele>
        <time>2014-04-08T13:43:21Z</time>
      </trkpt>
      <trkpt lat="47.13474" lon="-2.02291">
        <ele>9</ele>
        <time>2014-04-08T13:43:27Z</time>
      </trkpt>
      <trkpt lat="47.13472" lon="-2.02308">
        <ele>10</ele>
        <time>2014-04-08T13:43:29Z</time>
      </trkpt>
      <trkpt lat="47.13455" lon="-2.02357">
        <ele>8</ele>
        <time>2014-04-08T13:43:34Z</time>
      </trkpt>
      <trkpt lat="47.13441" lon="-2.02394">
        <ele>10</ele>
        <time>2014-04-08T13:43:38Z</time>
      </trkpt>
      <trkpt lat="47.13421" lon="-2.02441">
        <ele>9</ele>
        <time>2014-04-08T13:43:43Z</time>
      </trkpt>
      <trkpt lat="47.13416" lon="-2.0245">
        <ele>8</ele>
        <time>2014-04-08T13:43:45Z</time>
      </trkpt>
      <trkpt lat="47.13395" lon="-2.02512">
        <ele>9</ele>
        <time>2014-04-08T13:43:51Z</time>
      </trkpt>
      <trkpt lat="47.13384" lon="-2.02541">
        <ele>8</ele>
        <time>2014-04-08T13:43:55Z</time>
      </trkpt>
      <trkpt lat="47.13375" lon="-2.02556">
        <ele>9</ele>
        <time>2014-04-08T13:43:56Z</time>
      </trkpt>
      <trkpt lat="47.13353" lon="-2.02604">
        <ele>7</ele>
        <time>2014-04-08T13:44:02Z</time>
      </trkpt>
      <trkpt lat="47.13328" lon="-2.02644">
        <ele>7</ele>
        <time>2014-04-08T13:44:08Z</time>
      </trkpt>
      <trkpt lat="47.13314" lon="-2.02673">
        <ele>6</ele>
        <time>2014-04-08T13:44:10Z</time>
      </trkpt>
      <trkpt lat="47.13306" lon="-2.02702">
        <ele>5</ele>
        <time>2014-04-08T13:44:13Z</time>
      </trkpt>
      <trkpt lat="47.13287" lon="-2.02746">
        <ele>5</ele>
        <time>2014-04-08T13:44:19Z</time>
      </trkpt>
      <trkpt lat="47.13278" lon="-2.02784">
        <ele>7</ele>
        <time>2014-04-08T13:44:23Z</time>
      </trkpt>
      <trkpt lat="47.13267" lon="-2.02823">
        <ele>7</ele>
        <time>2014-04-08T13:44:27Z</time>
      </trkpt>
      <trkpt lat="47.13256" lon="-2.02863">
        <ele>6</ele>
        <time>2014-04-08T13:44:31Z</time>
      </trkpt>
      <trkpt lat="47.13248" lon="-2.02904">
        <ele>5</ele>
        <time>2014-04-08T13:44:34Z</time>
      </trkpt>
      <trkpt lat="47.13237" lon="-2.02952">
        <ele>5</ele>
        <time>2014-04-08T13:44:40Z</time>
      </trkpt>
      <trkpt lat="47.13227" lon="-2.02988">
        <ele>5</ele>
        <time>2014-04-08T13:44:43Z</time>
      </trkpt>
      <trkpt lat="47.13218" lon="-2.03018">
        <ele>6</ele>
        <time>2014-04-08T13:44:46Z</time>
      </trkpt>
      <trkpt lat="47.13208" lon="-2.0306">
        <ele>6</ele>
        <time>2014-04-08T13:44:50Z</time>
      </trkpt>
      <trkpt lat="47.13199" lon="-2.0309">
        <ele>8</ele>
        <time>2014-04-08T13:44:53Z</time>
      </trkpt>
      <trkpt lat="47.13188" lon="-2.03128">
        <ele>9</ele>
        <time>2014-04-08T13:44:57Z</time>
      </trkpt>
      <trkpt lat="47.13174" lon="-2.03167">
        <ele>11</ele>
        <time>2014-04-08T13:45:01Z</time>
      </trkpt>
      <trkpt lat="47.13158" lon="-2.03206">
        <ele>10</ele>
        <time>2014-04-08T13:45:05Z</time>
      </trkpt>
      <trkpt lat="47.13146" lon="-2.0326">
        <ele>13</ele>
        <time>2014-04-08T13:45:11Z</time>
      </trkpt>
      <trkpt lat="47.13131" lon="-2.03287">
        <ele>11</ele>
        <time>2014-04-08T13:45:15Z</time>
      </trkpt>
      <trkpt lat="47.13117" lon="-2.03322">
        <ele>10</ele>
        <time>2014-04-08T13:45:20Z</time>
      </trkpt>
      <trkpt lat="47.13105" lon="-2.03364">
        <ele>10</ele>
        <time>2014-04-08T13:45:25Z</time>
      </trkpt>
      <trkpt lat="47.13098" lon="-2.03387">
        <ele>8</ele>
        <time>2014-04-08T13:45:26Z</time>
      </trkpt>
      <trkpt lat="47.1309" lon="-2.03433">
        <ele>5</ele>
        <time>2014-04-08T13:45:31Z</time>
      </trkpt>
      <trkpt lat="47.13084" lon="-2.03476">
        <ele>3</ele>
        <time>2014-04-08T13:45:35Z</time>
      </trkpt>
      <trkpt lat="47.13078" lon="-2.03522">
        <ele>3</ele>
        <time>2014-04-08T13:45:39Z</time>
      </trkpt>
      <trkpt lat="47.13074" lon="-2.03573">
        <ele>4.3</ele>
        <time>2014-04-08T13:45:43Z</time>
      </trkpt>
      <trkpt lat="47.1306" lon="-2.03612">
        <ele>4.6</ele>
        <time>2014-04-08T13:45:48Z</time>
      </trkpt>
      <trkpt lat="47.13037" lon="-2.03652">
        <ele>3.2</ele>
        <time>2014-04-08T13:45:52Z</time>
      </trkpt>
      <trkpt lat="47.13033" lon="-2.03687">
        <ele>2</ele>
        <time>2014-04-08T13:45:54Z</time>
      </trkpt>
      <trkpt lat="47.13043" lon="-2.03741">
        <ele>2</ele>
        <time>2014-04-08T13:46:00Z</time>
      </trkpt>
      <trkpt lat="47.13055" lon="-2.03782">
        <ele>5</ele>
        <time>2014-04-08T13:46:03Z</time>
      </trkpt>
      <trkpt lat="47.13064" lon="-2.03814">
        <ele>-1</ele>
        <time>2014-04-08T13:46:06Z</time>
      </trkpt>
      <trkpt lat="47.13073" lon="-2.03847">
        <ele>-3</ele>
        <time>2014-04-08T13:46:09Z</time>
      </trkpt>
      <trkpt lat="47.13081" lon="-2.03903">
        <ele>1</ele>
        <time>2014-04-08T13:46:14Z</time>
      </trkpt>
      <trkpt lat="47.13083" lon="-2.03976">
        <ele>1</ele>
        <time>2014-04-08T13:46:20Z</time>
      </trkpt>
      <trkpt lat="47.13081" lon="-2.03996">
        <ele>5</ele>
        <time>2014-04-08T13:46:22Z</time>
      </trkpt>
      <trkpt lat="47.1309" lon="-2.04055">
        <ele>5.5</ele>
        <time>2014-04-08T13:46:27Z</time>
      </trkpt>
      <trkpt lat="47.13092" lon="-2.04106">
        <ele>-1</ele>
        <time>2014-04-08T13:46:31Z</time>
      </trkpt>
      <trkpt lat="47.13095" lon="-2.0416">
        <ele>2</ele>
        <time>2014-04-08T13:46:37Z</time>
      </trkpt>
      <trkpt lat="47.13093" lon="-2.04188">
        <ele>4</ele>
        <time>2014-04-08T13:46:39Z</time>
      </trkpt>
      <trkpt lat="47.13099" lon="-2.04246">
        <ele>3</ele>
        <time>2014-04-08T13:46:44Z</time>
      </trkpt>
      <trkpt lat="47.13104" lon="-2.04278">
        <ele>6</ele>
        <time>2014-04-08T13:46:47Z</time>
      </trkpt>
      <trkpt lat="47.13113" lon="-2.04334">
        <ele>2</ele>
        <time>2014-04-08T13:46:52Z</time>
      </trkpt>
      <trkpt lat="47.13108" lon="-2.04382">
        <ele>2</ele>
        <time>2014-04-08T13:46:56Z</time>
      </trkpt>
      <trkpt lat="47.13079" lon="-2.04439">
        <ele>1</ele>
        <time>2014-04-08T13:47:01Z</time>
      </trkpt>
      <trkpt lat="47.13067" lon="-2.04458">
        <ele>4.7</ele>
        <time>2014-04-08T13:47:04Z</time>
      </trkpt>
      <trkpt lat="47.13043" lon="-2.04499">
        <ele>1</ele>
        <time>2014-04-08T13:47:08Z</time>
      </trkpt>
      <trkpt lat="47.1302" lon="-2.04543">
        <ele>1</ele>
        <time>2014-04-08T13:47:14Z</time>
      </trkpt>
      <trkpt lat="47.13003" lon="-2.04568">
        <ele>-1</ele>
        <time>2014-04-08T13:47:16Z</time>
      </trkpt>
      <trkpt lat="47.12978" lon="-2.04599">
        <ele>-3</ele>
        <time>2014-04-08T13:47:20Z</time>
      </trkpt>
      <trkpt lat="47.12962" lon="-2.0464">
        <ele>1</ele>
        <time>2014-04-08T13:47:25Z</time>
      </trkpt>
      <trkpt lat="47.1296" lon="-2.04648">
        <ele>2</ele>
        <time>2014-04-08T13:47:27Z</time>
      </trkpt>
      <trkpt lat="47.12955" lon="-2.04707">
        <ele>6</ele>
        <time>2014-04-08T13:47:32Z</time>
      </trkpt>
      <trkpt lat="47.12952" lon="-2.0474">
        <ele>2</ele>
        <time>2014-04-08T13:47:37Z</time>
      </trkpt>
      <trkpt lat="47.12955" lon="-2.04766">
        <ele>3</ele>
        <time>2014-04-08T13:47:41Z</time>
      </trkpt>
      <trkpt lat="47.12944" lon="-2.04783">
        <ele>2</ele>
        <time>2014-04-08T13:47:47Z</time>
      </trkpt>
      <trkpt lat="47.12936" lon="-2.04784">
        <ele>1</ele>
        <time>2014-04-08T13:47:48Z</time>
      </trkpt>
      <trkpt lat="47.12898" lon="-2.04782">
        <ele>1</ele>
        <time>2014-04-08T13:47:54Z</time>
      </trkpt>
      <trkpt lat="47.12862" lon="-2.04784">
        <ele>2</ele>
        <time>2014-04-08T13:47:58Z</time>
      </trkpt>
      <trkpt lat="47.12831" lon="-2.04782">
        <ele>1</ele>
        <time>2014-04-08T13:48:02Z</time>
      </trkpt>
      <trkpt lat="47.12799" lon="-2.04767">
        <ele>2.8</ele>
        <time>2014-04-08T13:48:06Z</time>
      </trkpt>
      <trkpt lat="47.12784" lon="-2.04759">
        <ele>3.4</ele>
        <time>2014-04-08T13:48:08Z</time>
      </trkpt>
      <trkpt lat="47.1274" lon="-2.04744">
        <ele>4.3</ele>
        <time>2014-04-08T13:48:14Z</time>
      </trkpt>
      <trkpt lat="47.12698" lon="-2.04737">
        <ele>-1</ele>
        <time>2014-04-08T13:48:19Z</time>
      </trkpt>
      <trkpt lat="47.12678" lon="-2.04738">
        <ele>-1</ele>
        <time>2014-04-08T13:48:23Z</time>
      </trkpt>
      <trkpt lat="47.12648" lon="-2.04742">
        <ele>-2</ele>
        <time>2014-04-08T13:48:27Z</time>
      </trkpt>
      <trkpt lat="47.12619" lon="-2.04749">
        <ele>-2</ele>
        <time>2014-04-08T13:48:30Z</time>
      </trkpt>
      <trkpt lat="47.12606" lon="-2.04756">
        <ele>-3</ele>
        <time>2014-04-08T13:48:32Z</time>
      </trkpt>
      <trkpt lat="47.12581" lon="-2.04796">
        <ele>-1</ele>
        <time>2014-04-08T13:48:38Z</time>
      </trkpt>
      <trkpt lat="47.12571" lon="-2.04834">
        <ele>7.4</ele>
        <time>2014-04-08T13:48:42Z</time>
      </trkpt>
      <trkpt lat="47.12561" lon="-2.04861">
        <ele>-3</ele>
        <time>2014-04-08T13:48:45Z</time>
      </trkpt>
      <trkpt lat="47.12539" lon="-2.04913">
        <ele>-3</ele>
        <time>2014-04-08T13:48:51Z</time>
      </trkpt>
      <trkpt lat="47.12528" lon="-2.04947">
        <ele>-3</ele>
        <time>2014-04-08T13:48:55Z</time>
      </trkpt>
      <trkpt lat="47.12513" lon="-2.04975">
        <ele>-2</ele>
        <time>2014-04-08T13:48:59Z</time>
      </trkpt>
      <trkpt lat="47.12488" lon="-2.05001">
        <ele>9</ele>
        <time>2014-04-08T13:49:04Z</time>
      </trkpt>
      <trkpt lat="47.1248" lon="-2.05016">
        <ele>9.4</ele>
        <time>2014-04-08T13:49:05Z</time>
      </trkpt>
      <trkpt lat="47.12456" lon="-2.05043">
        <ele>-1</ele>
        <time>2014-04-08T13:49:10Z</time>
      </trkpt>
      <trkpt lat="47.12424" lon="-2.05079">
        <ele>-2</ele>
        <time>2014-04-08T13:49:17Z</time>
      </trkpt>
      <trkpt lat="47.12405" lon="-2.05101">
        <ele>-3</ele>
        <time>2014-04-08T13:49:19Z</time>
      </trkpt>
      <trkpt lat="47.12396" lon="-2.05115">
        <ele>-2</ele>
        <time>2014-04-08T13:49:22Z</time>
      </trkpt>
      <trkpt lat="47.12371" lon="-2.05146">
        <ele>-1</ele>
        <time>2014-04-08T13:49:27Z</time>
      </trkpt>
      <trkpt lat="47.12345" lon="-2.0518">
        <ele>1</ele>
        <time>2014-04-08T13:49:32Z</time>
      </trkpt>
      <trkpt lat="47.12331" lon="-2.05211">
        <ele>4</ele>
        <time>2014-04-08T13:49:36Z</time>
      </trkpt>
      <trkpt lat="47.12316" lon="-2.05246">
        <ele>3</ele>
        <time>2014-04-08T13:49:40Z</time>
      </trkpt>
      <trkpt lat="47.12313" lon="-2.05277">
        <ele>6</ele>
        <time>2014-04-08T13:49:42Z</time>
      </trkpt>
      <trkpt lat="47.12307" lon="-2.05313">
        <ele>7</ele>
        <time>2014-04-08T13:49:46Z</time>
      </trkpt>
      <trkpt lat="47.12302" lon="-2.05351">
        <ele>9</ele>
        <time>2014-04-08T13:49:51Z</time>
      </trkpt>
      <trkpt lat="47.12294" lon="-2.05381">
        <ele>10</ele>
        <time>2014-04-08T13:49:55Z</time>
      </trkpt>
      <trkpt lat="47.12285" lon="-2.05417">
        <ele>10</ele>
        <time>2014-04-08T13:50:00Z</time>
      </trkpt>
      <trkpt lat="47.12281" lon="-2.05421">
        <ele>11</ele>
        <time>2014-04-08T13:50:02Z</time>
      </trkpt>
      <trkpt lat="47.12262" lon="-2.05445">
        <ele>9</ele>
        <time>2014-04-08T13:50:07Z</time>
      </trkpt>
      <trkpt lat="47.12235" lon="-2.05455">
        <ele>7</ele>
        <time>2014-04-08T13:50:12Z</time>
      </trkpt>
      <trkpt lat="47.12208" lon="-2.05458">
        <ele>7</ele>
        <time>2014-04-08T13:50:16Z</time>
      </trkpt>
      <trkpt lat="47.12189" lon="-2.05461">
        <ele>8</ele>
        <time>2014-04-08T13:50:19Z</time>
      </trkpt>
      <trkpt lat="47.12174" lon="-2.05464">
        <ele>7</ele>
        <time>2014-04-08T13:50:22Z</time>
      </trkpt>
      <trkpt lat="47.12141" lon="-2.05472">
        <ele>7</ele>
        <time>2014-04-08T13:50:28Z</time>
      </trkpt>
      <trkpt lat="47.12125" lon="-2.05476">
        <ele>7</ele>
        <time>2014-04-08T13:50:31Z</time>
      </trkpt>
      <trkpt lat="47.12103" lon="-2.05487">
        <ele>8</ele>
        <time>2014-04-08T13:50:36Z</time>
      </trkpt>
      <trkpt lat="47.12074" lon="-2.05512">
        <ele>9</ele>
        <time>2014-04-08T13:50:41Z</time>
      </trkpt>
      <trkpt lat="47.12066" lon="-2.05515">
        <ele>8</ele>
        <time>2014-04-08T13:50:41Z</time>
      </trkpt>
      <trkpt lat="47.1203" lon="-2.05555">
        <ele>5</ele>
        <time>2014-04-08T13:50:47Z</time>
      </trkpt>
      <trkpt lat="47.12006" lon="-2.0558">
        <ele>7</ele>
        <time>2014-04-08T13:50:51Z</time>
      </trkpt>
      <trkpt lat="47.11987" lon="-2.05594">
        <ele>5</ele>
        <time>2014-04-08T13:50:54Z</time>
      </trkpt>
      <trkpt lat="47.11957" lon="-2.05621">
        <ele>6</ele>
        <time>2014-04-08T13:50:59Z</time>
      </trkpt>
      <trkpt lat="47.11938" lon="-2.05638">
        <ele>7</ele>
        <time>2014-04-08T13:51:02Z</time>
      </trkpt>
      <trkpt lat="47.11898" lon="-2.05674">
        <ele>5</ele>
        <time>2014-04-08T13:51:08Z</time>
      </trkpt>
      <trkpt lat="47.11883" lon="-2.05689">
        <ele>5</ele>
        <time>2014-04-08T13:51:10Z</time>
      </trkpt>
      <trkpt lat="47.11852" lon="-2.05718">
        <ele>9</ele>
        <time>2014-04-08T13:51:15Z</time>
      </trkpt>
      <trkpt lat="47.11824" lon="-2.05751">
        <ele>10</ele>
        <time>2014-04-08T13:51:21Z</time>
      </trkpt>
      <trkpt lat="47.11802" lon="-2.05776">
        <ele>12</ele>
        <time>2014-04-08T13:51:26Z</time>
      </trkpt>
      <trkpt lat="47.11786" lon="-2.05791">
        <ele>11</ele>
        <time>2014-04-08T13:51:29Z</time>
      </trkpt>
      <trkpt lat="47.11769" lon="-2.05811">
        <ele>12</ele>
        <time>2014-04-08T13:51:32Z</time>
      </trkpt>
      <trkpt lat="47.11747" lon="-2.05825">
        <ele>13</ele>
        <time>2014-04-08T13:51:36Z</time>
      </trkpt>
      <trkpt lat="47.11736" lon="-2.05833">
        <ele>12</ele>
        <time>2014-04-08T13:51:38Z</time>
      </trkpt>
      <trkpt lat="47.11709" lon="-2.05855">
        <ele>14</ele>
        <time>2014-04-08T13:51:45Z</time>
      </trkpt>
      <trkpt lat="47.11692" lon="-2.05868">
        <ele>17</ele>
        <time>2014-04-08T13:51:49Z</time>
      </trkpt>
      <trkpt lat="47.11676" lon="-2.05885">
        <ele>24</ele>
        <time>2014-04-08T13:51:54Z</time>
      </trkpt>
      <trkpt lat="47.11657" lon="-2.05902">
        <ele>21</ele>
        <time>2014-04-08T13:51:58Z</time>
      </trkpt>
      <trkpt lat="47.11651" lon="-2.05909">
        <ele>20</ele>
        <time>2014-04-08T13:51:59Z</time>
      </trkpt>
      <trkpt lat="47.11628" lon="-2.05932">
        <ele>22</ele>
        <time>2014-04-08T13:52:05Z</time>
      </trkpt>
      <trkpt lat="47.11615" lon="-2.05945">
        <ele>22</ele>
        <time>2014-04-08T13:52:09Z</time>
      </trkpt>
      <trkpt lat="47.11598" lon="-2.05959">
        <ele>22</ele>
        <time>2014-04-08T13:52:13Z</time>
      </trkpt>
      <trkpt lat="47.11578" lon="-2.05972">
        <ele>20</ele>
        <time>2014-04-08T13:52:17Z</time>
      </trkpt>
      <trkpt lat="47.11569" lon="-2.05978">
        <ele>21</ele>
        <time>2014-04-08T13:52:20Z</time>
      </trkpt>
      <trkpt lat="47.11538" lon="-2.05998">
        <ele>23</ele>
        <time>2014-04-08T13:52:25Z</time>
      </trkpt>
      <trkpt lat="47.11514" lon="-2.06012">
        <ele>23</ele>
        <time>2014-04-08T13:52:29Z</time>
      </trkpt>
      <trkpt lat="47.11489" lon="-2.06033">
        <ele>23</ele>
        <time>2014-04-08T13:52:34Z</time>
      </trkpt>
      <trkpt lat="47.11466" lon="-2.0605">
        <ele>22</ele>
        <time>2014-04-08T13:52:38Z</time>
      </trkpt>
      <trkpt lat="47.11442" lon="-2.0607">
        <ele>23</ele>
        <time>2014-04-08T13:52:41Z</time>
      </trkpt>
      <trkpt lat="47.11417" lon="-2.06095">
        <ele>21</ele>
        <time>2014-04-08T13:52:47Z</time>
      </trkpt>
      <trkpt lat="47.1139" lon="-2.06099">
        <ele>18</ele>
        <time>2014-04-08T13:52:50Z</time>
      </trkpt>
      <trkpt lat="47.11372" lon="-2.06115">
        <ele>18</ele>
        <time>2014-04-08T13:52:53Z</time>
      </trkpt>
      <trkpt lat="47.1135" lon="-2.06152">
        <ele>19</ele>
        <time>2014-04-08T13:52:58Z</time>
      </trkpt>
      <trkpt lat="47.11337" lon="-2.06176">
        <ele>20</ele>
        <time>2014-04-08T13:53:02Z</time>
      </trkpt>
      <trkpt lat="47.1132" lon="-2.06206">
        <ele>21</ele>
        <time>2014-04-08T13:53:06Z</time>
      </trkpt>
      <trkpt lat="47.113" lon="-2.06236">
        <ele>20</ele>
        <time>2014-04-08T13:53:10Z</time>
      </trkpt>
      <trkpt lat="47.11289" lon="-2.06274">
        <ele>21</ele>
        <time>2014-04-08T13:53:14Z</time>
      </trkpt>
      <trkpt lat="47.11288" lon="-2.06316">
        <ele>19</ele>
        <time>2014-04-08T13:53:17Z</time>
      </trkpt>
      <trkpt lat="47.11288" lon="-2.06356">
        <ele>19</ele>
        <time>2014-04-08T13:53:21Z</time>
      </trkpt>
      <trkpt lat="47.11289" lon="-2.06404">
        <ele>18</ele>
        <time>2014-04-08T13:53:26Z</time>
      </trkpt>
      <trkpt lat="47.11294" lon="-2.06432">
        <ele>16</ele>
        <time>2014-04-08T13:53:30Z</time>
      </trkpt>
      <trkpt lat="47.11302" lon="-2.06465">
        <ele>22</ele>
        <time>2014-04-08T13:53:34Z</time>
      </trkpt>
      <trkpt lat="47.11297" lon="-2.06481">
        <ele>24</ele>
        <time>2014-04-08T13:53:38Z</time>
      </trkpt>
      <trkpt lat="47.11298" lon="-2.06513">
        <ele>25</ele>
        <time>2014-04-08T13:53:42Z</time>
      </trkpt>
      <trkpt lat="47.11291" lon="-2.0654">
        <ele>25</ele>
        <time>2014-04-08T13:53:44Z</time>
      </trkpt>
      <trkpt lat="47.11282" lon="-2.06565">
        <ele>25</ele>
        <time>2014-04-08T13:53:48Z</time>
      </trkpt>
      <trkpt lat="47.11271" lon="-2.06624">
        <ele>24</ele>
        <time>2014-04-08T13:53:54Z</time>
      </trkpt>
      <trkpt lat="47.11271" lon="-2.06649">
        <ele>25</ele>
        <time>2014-04-08T13:53:57Z</time>
      </trkpt>
      <trkpt lat="47.11274" lon="-2.06681">
        <ele>23</ele>
        <time>2014-04-08T13:54:02Z</time>
      </trkpt>
      <trkpt lat="47.11273" lon="-2.06713">
        <ele>24</ele>
        <time>2014-04-08T13:54:06Z</time>
      </trkpt>
      <trkpt lat="47.11275" lon="-2.06744">
        <ele>23</ele>
        <time>2014-04-08T13:54:10Z</time>
      </trkpt>
      <trkpt lat="47.11275" lon="-2.06789">
        <ele>22</ele>
        <time>2014-04-08T13:54:15Z</time>
      </trkpt>
      <trkpt lat="47.11276" lon="-2.06822">
        <ele>19</ele>
        <time>2014-04-08T13:54:18Z</time>
      </trkpt>
      <trkpt lat="47.11277" lon="-2.06859">
        <ele>20</ele>
        <time>2014-04-08T13:54:21Z</time>
      </trkpt>
      <trkpt lat="47.11278" lon="-2.06875">
        <ele>21</ele>
        <time>2014-04-08T13:54:23Z</time>
      </trkpt>
      <trkpt lat="47.1128" lon="-2.06943">
        <ele>24</ele>
        <time>2014-04-08T13:54:32Z</time>
      </trkpt>
      <trkpt lat="47.11281" lon="-2.0697">
        <ele>27</ele>
        <time>2014-04-08T13:54:34Z</time>
      </trkpt>
      <trkpt lat="47.1128" lon="-2.07023">
        <ele>27</ele>
        <time>2014-04-08T13:54:39Z</time>
      </trkpt>
      <trkpt lat="47.11281" lon="-2.07044">
        <ele>26</ele>
        <time>2014-04-08T13:54:41Z</time>
      </trkpt>
      <trkpt lat="47.11282" lon="-2.07101">
        <ele>25</ele>
        <time>2014-04-08T13:54:47Z</time>
      </trkpt>
      <trkpt lat="47.11282" lon="-2.07152">
        <ele>21</ele>
        <time>2014-04-08T13:54:52Z</time>
      </trkpt>
      <trkpt lat="47.11283" lon="-2.07186">
        <ele>19</ele>
        <time>2014-04-08T13:54:55Z</time>
      </trkpt>
      <trkpt lat="47.11285" lon="-2.07224">
        <ele>17</ele>
        <time>2014-04-08T13:54:58Z</time>
      </trkpt>
      <trkpt lat="47.11285" lon="-2.07261">
        <ele>17</ele>
        <time>2014-04-08T13:55:02Z</time>
      </trkpt>
      <trkpt lat="47.11296" lon="-2.07295">
        <ele>15</ele>
        <time>2014-04-08T13:55:06Z</time>
      </trkpt>
      <trkpt lat="47.11294" lon="-2.07337">
        <ele>18</ele>
        <time>2014-04-08T13:55:11Z</time>
      </trkpt>
      <trkpt lat="47.1129" lon="-2.07366">
        <ele>21</ele>
        <time>2014-04-08T13:55:14Z</time>
      </trkpt>
      <trkpt lat="47.11289" lon="-2.07405">
        <ele>20</ele>
        <time>2014-04-08T13:55:18Z</time>
      </trkpt>
      <trkpt lat="47.11289" lon="-2.07444">
        <ele>21</ele>
        <time>2014-04-08T13:55:23Z</time>
      </trkpt>
      <trkpt lat="47.11289" lon="-2.07486">
        <ele>20</ele>
        <time>2014-04-08T13:55:27Z</time>
      </trkpt>
      <trkpt lat="47.11288" lon="-2.07526">
        <ele>18</ele>
        <time>2014-04-08T13:55:31Z</time>
      </trkpt>
      <trkpt lat="47.1129" lon="-2.07569">
        <ele>17</ele>
        <time>2014-04-08T13:55:34Z</time>
      </trkpt>
      <trkpt lat="47.11289" lon="-2.07621">
        <ele>15</ele>
        <time>2014-04-08T13:55:40Z</time>
      </trkpt>
      <trkpt lat="47.1129" lon="-2.07632">
        <ele>14</ele>
        <time>2014-04-08T13:55:41Z</time>
      </trkpt>
      <trkpt lat="47.11292" lon="-2.07689">
        <ele>17</ele>
        <time>2014-04-08T13:55:46Z</time>
      </trkpt>
      <trkpt lat="47.11291" lon="-2.0773">
        <ele>19</ele>
        <time>2014-04-08T13:55:51Z</time>
      </trkpt>
      <trkpt lat="47.11292" lon="-2.07769">
        <ele>17</ele>
        <time>2014-04-08T13:55:55Z</time>
      </trkpt>
      <trkpt lat="47.11291" lon="-2.07808">
        <ele>18</ele>
        <time>2014-04-08T13:55:59Z</time>
      </trkpt>
      <trkpt lat="47.11294" lon="-2.07852">
        <ele>16</ele>
        <time>2014-04-08T13:56:02Z</time>
      </trkpt>
      <trkpt lat="47.11294" lon="-2.07893">
        <ele>18</ele>
        <time>2014-04-08T13:56:06Z</time>
      </trkpt>
      <trkpt lat="47.11294" lon="-2.07931">
        <ele>16</ele>
        <time>2014-04-08T13:56:10Z</time>
      </trkpt>
      <trkpt lat="47.11293" lon="-2.07974">
        <ele>15</ele>
        <time>2014-04-08T13:56:14Z</time>
      </trkpt>
      <trkpt lat="47.11294" lon="-2.08008">
        <ele>17</ele>
        <time>2014-04-08T13:56:18Z</time>
      </trkpt>
      <trkpt lat="47.11295" lon="-2.08042">
        <ele>17</ele>
        <time>2014-04-08T13:56:23Z</time>
      </trkpt>
      <trkpt lat="47.11296" lon="-2.08083">
        <ele>17</ele>
        <time>2014-04-08T13:56:27Z</time>
      </trkpt>
      <trkpt lat="47.11295" lon="-2.08102">
        <ele>18</ele>
        <time>2014-04-08T13:56:30Z</time>
      </trkpt>
      <trkpt lat="47.11298" lon="-2.0815">
        <ele>18</ele>
        <time>2014-04-08T13:56:36Z</time>
      </trkpt>
      <trkpt lat="47.11301" lon="-2.08172">
        <ele>20</ele>
        <time>2014-04-08T13:56:38Z</time>
      </trkpt>
      <trkpt lat="47.11302" lon="-2.08204">
        <ele>20</ele>
        <time>2014-04-08T13:56:42Z</time>
      </trkpt>
      <trkpt lat="47.11302" lon="-2.08227">
        <ele>20</ele>
        <time>2014-04-08T13:56:45Z</time>
      </trkpt>
      <trkpt lat="47.11301" lon="-2.08271">
        <ele>21</ele>
        <time>2014-04-08T13:56:51Z</time>
      </trkpt>
      <trkpt lat="47.11302" lon="-2.08294">
        <ele>22</ele>
        <time>2014-04-08T13:56:55Z</time>
      </trkpt>
      <trkpt lat="47.11303" lon="-2.08326">
        <ele>20</ele>
        <time>2014-04-08T13:56:59Z</time>
      </trkpt>
      <trkpt lat="47.11303" lon="-2.08343">
        <ele>20</ele>
        <time>2014-04-08T13:57:00Z</time>
      </trkpt>
      <trkpt lat="47.11302" lon="-2.08397">
        <ele>22</ele>
        <time>2014-04-08T13:57:07Z</time>
      </trkpt>
      <trkpt lat="47.11302" lon="-2.08439">
        <ele>22</ele>
        <time>2014-04-08T13:57:12Z</time>
      </trkpt>
      <trkpt lat="47.11303" lon="-2.08478">
        <ele>24</ele>
        <time>2014-04-08T13:57:16Z</time>
      </trkpt>
      <trkpt lat="47.11305" lon="-2.08522">
        <ele>21</ele>
        <time>2014-04-08T13:57:19Z</time>
      </trkpt>
      <trkpt lat="47.11305" lon="-2.08554">
        <ele>22</ele>
        <time>2014-04-08T13:57:22Z</time>
      </trkpt>
      <trkpt lat="47.11308" lon="-2.08615">
        <ele>20</ele>
        <time>2014-04-08T13:57:27Z</time>
      </trkpt>
      <trkpt lat="47.11308" lon="-2.08658">
        <ele>20</ele>
        <time>2014-04-08T13:57:31Z</time>
      </trkpt>
      <trkpt lat="47.11309" lon="-2.08719">
        <ele>19</ele>
        <time>2014-04-08T13:57:36Z</time>
      </trkpt>
      <trkpt lat="47.1131" lon="-2.08753">
        <ele>17</ele>
        <time>2014-04-08T13:57:39Z</time>
      </trkpt>
      <trkpt lat="47.1131" lon="-2.08797">
        <ele>17</ele>
        <time>2014-04-08T13:57:43Z</time>
      </trkpt>
      <trkpt lat="47.11313" lon="-2.08838">
        <ele>16</ele>
        <time>2014-04-08T13:57:48Z</time>
      </trkpt>
      <trkpt lat="47.11314" lon="-2.08886">
        <ele>16</ele>
        <time>2014-04-08T13:57:52Z</time>
      </trkpt>
      <trkpt lat="47.11312" lon="-2.08923">
        <ele>18</ele>
        <time>2014-04-08T13:57:56Z</time>
      </trkpt>
      <trkpt lat="47.11312" lon="-2.08951">
        <ele>16</ele>
        <time>2014-04-08T13:57:59Z</time>
      </trkpt>
      <trkpt lat="47.11314" lon="-2.08969">
        <ele>17</ele>
        <time>2014-04-08T13:58:02Z</time>
      </trkpt>
      <trkpt lat="47.11316" lon="-2.09023">
        <ele>19</ele>
        <time>2014-04-08T13:58:08Z</time>
      </trkpt>
      <trkpt lat="47.11314" lon="-2.09058">
        <ele>19</ele>
        <time>2014-04-08T13:58:12Z</time>
      </trkpt>
      <trkpt lat="47.11314" lon="-2.09088">
        <ele>19</ele>
        <time>2014-04-08T13:58:15Z</time>
      </trkpt>
      <trkpt lat="47.11315" lon="-2.09128">
        <ele>19</ele>
        <time>2014-04-08T13:58:21Z</time>
      </trkpt>
      <trkpt lat="47.11317" lon="-2.09148">
        <ele>17</ele>
        <time>2014-04-08T13:58:23Z</time>
      </trkpt>
      <trkpt lat="47.11319" lon="-2.09174">
        <ele>15</ele>
        <time>2014-04-08T13:58:27Z</time>
      </trkpt>
      <trkpt lat="47.11323" lon="-2.092">
        <ele>14</ele>
        <time>2014-04-08T13:58:30Z</time>
      </trkpt>
      <trkpt lat="47.11331" lon="-2.0924">
        <ele>15</ele>
        <time>2014-04-08T13:58:35Z</time>
      </trkpt>
      <trkpt lat="47.11334" lon="-2.09259">
        <ele>14</ele>
        <time>2014-04-08T13:58:37Z</time>
      </trkpt>
      <trkpt lat="47.11335" lon="-2.09303">
        <ele>14</ele>
        <time>2014-04-08T13:58:42Z</time>
      </trkpt>
      <trkpt lat="47.11349" lon="-2.09371">
        <ele>13</ele>
        <time>2014-04-08T13:58:48Z</time>
      </trkpt>
      <trkpt lat="47.11364" lon="-2.09397">
        <ele>13</ele>
        <time>2014-04-08T13:58:51Z</time>
      </trkpt>
      <trkpt lat="47.11387" lon="-2.0942">
        <ele>10</ele>
        <time>2014-04-08T13:58:56Z</time>
      </trkpt>
      <trkpt lat="47.11418" lon="-2.09438">
        <ele>12</ele>
        <time>2014-04-08T13:59:00Z</time>
      </trkpt>
      <trkpt lat="47.11436" lon="-2.09467">
        <ele>12</ele>
        <time>2014-04-08T13:59:04Z</time>
      </trkpt>
      <trkpt lat="47.11436" lon="-2.09506">
        <ele>11</ele>
        <time>2014-04-08T13:59:08Z</time>
      </trkpt>
      <trkpt lat="47.11429" lon="-2.09541">
        <ele>10</ele>
        <time>2014-04-08T13:59:11Z</time>
      </trkpt>
      <trkpt lat="47.11424" lon="-2.09601">
        <ele>9</ele>
        <time>2014-04-08T13:59:17Z</time>
      </trkpt>
      <trkpt lat="47.11427" lon="-2.09623">
        <ele>9</ele>
        <time>2014-04-08T13:59:19Z</time>
      </trkpt>
      <trkpt lat="47.11429" lon="-2.09653">
        <ele>9</ele>
        <time>2014-04-08T13:59:22Z</time>
      </trkpt>
      <trkpt lat="47.11429" lon="-2.0973">
        <ele>7</ele>
        <time>2014-04-08T13:59:28Z</time>
      </trkpt>
      <trkpt lat="47.11428" lon="-2.09774">
        <ele>9</ele>
        <time>2014-04-08T13:59:31Z</time>
      </trkpt>
      <trkpt lat="47.11436" lon="-2.09805">
        <ele>8</ele>
        <time>2014-04-08T13:59:35Z</time>
      </trkpt>
      <trkpt lat="47.11448" lon="-2.09831">
        <ele>8</ele>
        <time>2014-04-08T13:59:40Z</time>
      </trkpt>
      <trkpt lat="47.11468" lon="-2.09845">
        <ele>9</ele>
        <time>2014-04-08T13:59:43Z</time>
      </trkpt>
      <trkpt lat="47.11486" lon="-2.09851">
        <ele>8</ele>
        <time>2014-04-08T13:59:47Z</time>
      </trkpt>
      <trkpt lat="47.11504" lon="-2.09861">
        <ele>6</ele>
        <time>2014-04-08T13:59:52Z</time>
      </trkpt>
      <trkpt lat="47.11517" lon="-2.09861">
        <ele>8</ele>
        <time>2014-04-08T13:59:56Z</time>
      </trkpt>
      <trkpt lat="47.1153" lon="-2.09866">
        <ele>8</ele>
        <time>2014-04-08T14:00:00Z</time>
      </trkpt>
      <trkpt lat="47.11544" lon="-2.09871">
        <ele>8</ele>
        <time>2014-04-08T14:00:04Z</time>
      </trkpt>
      <trkpt lat="47.11548" lon="-2.09888">
        <ele>5</ele>
        <time>2014-04-08T14:00:08Z</time>
      </trkpt>
      <trkpt lat="47.11548" lon="-2.09913">
        <ele>6</ele>
        <time>2014-04-08T14:00:12Z</time>
      </trkpt>
      <trkpt lat="47.11548" lon="-2.09931">
        <ele>5</ele>
        <time>2014-04-08T14:00:15Z</time>
      </trkpt>
      <trkpt lat="47.11546" lon="-2.09952">
        <ele>7</ele>
        <time>2014-04-08T14:00:18Z</time>
      </trkpt>
      <trkpt lat="47.11548" lon="-2.09968">
        <ele>6</ele>
        <time>2014-04-08T14:00:21Z</time>
      </trkpt>
      <trkpt lat="47.11533" lon="-2.09988">
        <ele>9</ele>
        <time>2014-04-08T14:00:30Z</time>
      </trkpt>
      <trkpt lat="47.1152" lon="-2.10003">
        <ele>7</ele>
        <time>2014-04-08T14:00:35Z</time>
      </trkpt>
      <trkpt lat="47.11517" lon="-2.10019">
        <ele>4</ele>
        <time>2014-04-08T14:00:40Z</time>
      </trkpt>
      <trkpt lat="47.11511" lon="-2.10031">
        <ele>3</ele>
        <time>2014-04-08T14:00:45Z</time>
      </trkpt>
    </trkseg>
  </trk>
</gpx>